<?xml version="1.0" encoding="UTF-8" standalone="no" ?>
<gpx xmlns="http://www.topografix.com/GPX/1/1" xmlns:xsi="http://www.w3.org/2001/XMLSchema-instance" xsi:schemaLocation="http://www.topografix.com/GPX/1/1 http://www.topografix.com/GPX/1/1/gpx.xsd" version="1.1" creator="VisuGPX - https://www.visugpx.com">
  <metadata>
    <name>Randonnée 01-12-2018-Pompertuzat</name>
    <desc><![CDATA[Boucle au départ de Pompertuzat et longeant le canal du midi-]]></desc>
  </metadata>
  <trk>
    <name><![CDATA[Rando Pompertuzat 01Dec18]]></name>
    <desc><![CDATA[1 Dec 2018  9:22 am]]></desc>
    <trkseg>
      <trkpt lat="43.48911" lon="1.51451">
        <ele>206.566</ele>
        <time>2018-12-01T08:22:10.497Z</time>
      </trkpt>
      <trkpt lat="43.48911" lon="1.51451">
        <ele>206.549</ele>
        <time>2018-12-01T08:22:10.597Z</time>
      </trkpt>
      <trkpt lat="43.48918" lon="1.51448">
        <ele>206.41</ele>
        <time>2018-12-01T08:22:25.220Z</time>
      </trkpt>
      <trkpt lat="43.48927" lon="1.51452">
        <ele>206.342</ele>
        <time>2018-12-01T08:22:38.739Z</time>
      </trkpt>
      <trkpt lat="43.48932" lon="1.51462">
        <ele>206.187</ele>
        <time>2018-12-01T08:22:51.992Z</time>
      </trkpt>
      <trkpt lat="43.48938" lon="1.51472">
        <ele>205.604</ele>
        <time>2018-12-01T08:23:03.086Z</time>
      </trkpt>
      <trkpt lat="43.48947" lon="1.51476">
        <ele>204.552</ele>
        <time>2018-12-01T08:23:11.011Z</time>
      </trkpt>
      <trkpt lat="43.48955" lon="1.51482">
        <ele>203.548</ele>
        <time>2018-12-01T08:23:18.520Z</time>
      </trkpt>
      <trkpt lat="43.48961" lon="1.51492">
        <ele>203.014</ele>
        <time>2018-12-01T08:23:26.526Z</time>
      </trkpt>
      <trkpt lat="43.48968" lon="1.515">
        <ele>202.773</ele>
        <time>2018-12-01T08:23:35.890Z</time>
      </trkpt>
      <trkpt lat="43.48974" lon="1.5151">
        <ele>202.47</ele>
        <time>2018-12-01T08:23:45.860Z</time>
      </trkpt>
      <trkpt lat="43.48979" lon="1.51521">
        <ele>201.956</ele>
        <time>2018-12-01T08:23:55.743Z</time>
      </trkpt>
      <trkpt lat="43.48985" lon="1.51532">
        <ele>201.346</ele>
        <time>2018-12-01T08:24:04.922Z</time>
      </trkpt>
      <trkpt lat="43.48991" lon="1.51541">
        <ele>200.885</ele>
        <time>2018-12-01T08:24:14.317Z</time>
      </trkpt>
      <trkpt lat="43.48998" lon="1.51549">
        <ele>200.766</ele>
        <time>2018-12-01T08:24:22.503Z</time>
      </trkpt>
      <trkpt lat="43.49005" lon="1.51556">
        <ele>200.922</ele>
        <time>2018-12-01T08:24:29.414Z</time>
      </trkpt>
      <trkpt lat="43.49012" lon="1.51566">
        <ele>201.117</ele>
        <time>2018-12-01T08:24:37.419Z</time>
      </trkpt>
      <trkpt lat="43.49018" lon="1.51576">
        <ele>201.158</ele>
        <time>2018-12-01T08:24:46.590Z</time>
      </trkpt>
      <trkpt lat="43.49019" lon="1.5159">
        <ele>200.986</ele>
        <time>2018-12-01T08:24:55.849Z</time>
      </trkpt>
      <trkpt lat="43.49026" lon="1.516">
        <ele>200.659</ele>
        <time>2018-12-01T08:25:03.336Z</time>
      </trkpt>
      <trkpt lat="43.49033" lon="1.51609">
        <ele>200.348</ele>
        <time>2018-12-01T08:25:09.597Z</time>
      </trkpt>
      <trkpt lat="43.4904" lon="1.51619">
        <ele>200.159</ele>
        <time>2018-12-01T08:25:16.267Z</time>
      </trkpt>
      <trkpt lat="43.49048" lon="1.51628">
        <ele>200.047</ele>
        <time>2018-12-01T08:25:23.363Z</time>
      </trkpt>
      <trkpt lat="43.49054" lon="1.51637">
        <ele>199.882</ele>
        <time>2018-12-01T08:25:30.042Z</time>
      </trkpt>
      <trkpt lat="43.49062" lon="1.51646">
        <ele>199.535</ele>
        <time>2018-12-01T08:25:37.930Z</time>
      </trkpt>
      <trkpt lat="43.49069" lon="1.51654">
        <ele>199.016</ele>
        <time>2018-12-01T08:25:45.418Z</time>
      </trkpt>
      <trkpt lat="43.49074" lon="1.51665">
        <ele>198.416</ele>
        <time>2018-12-01T08:25:53.993Z</time>
      </trkpt>
      <trkpt lat="43.49081" lon="1.51675">
        <ele>197.804</ele>
        <time>2018-12-01T08:26:02.980Z</time>
      </trkpt>
      <trkpt lat="43.49088" lon="1.51684">
        <ele>197.224</ele>
        <time>2018-12-01T08:26:09.393Z</time>
      </trkpt>
      <trkpt lat="43.49096" lon="1.51692">
        <ele>196.739</ele>
        <time>2018-12-01T08:26:16.113Z</time>
      </trkpt>
      <trkpt lat="43.49104" lon="1.51699">
        <ele>196.39</ele>
        <time>2018-12-01T08:26:23.343Z</time>
      </trkpt>
      <trkpt lat="43.4911" lon="1.51708">
        <ele>196.09</ele>
        <time>2018-12-01T08:26:33.215Z</time>
      </trkpt>
      <trkpt lat="43.49117" lon="1.51717">
        <ele>195.761</ele>
        <time>2018-12-01T08:26:40.844Z</time>
      </trkpt>
      <trkpt lat="43.49123" lon="1.51726">
        <ele>195.473</ele>
        <time>2018-12-01T08:26:47.902Z</time>
      </trkpt>
      <trkpt lat="43.49129" lon="1.51736">
        <ele>195.284</ele>
        <time>2018-12-01T08:26:55.801Z</time>
      </trkpt>
      <trkpt lat="43.4913" lon="1.51749">
        <ele>195.183</ele>
        <time>2018-12-01T08:27:04.560Z</time>
      </trkpt>
      <trkpt lat="43.49136" lon="1.51758">
        <ele>195.094</ele>
        <time>2018-12-01T08:27:14.365Z</time>
      </trkpt>
      <trkpt lat="43.49141" lon="1.5177">
        <ele>194.885</ele>
        <time>2018-12-01T08:27:24.694Z</time>
      </trkpt>
      <trkpt lat="43.49147" lon="1.51781">
        <ele>194.58</ele>
        <time>2018-12-01T08:27:33.245Z</time>
      </trkpt>
      <trkpt lat="43.49155" lon="1.51793">
        <ele>194.375</ele>
        <time>2018-12-01T08:27:41.317Z</time>
      </trkpt>
      <trkpt lat="43.49163" lon="1.51798">
        <ele>194.449</ele>
        <time>2018-12-01T08:27:48.449Z</time>
      </trkpt>
      <trkpt lat="43.49171" lon="1.51804">
        <ele>194.743</ele>
        <time>2018-12-01T08:27:55.491Z</time>
      </trkpt>
      <trkpt lat="43.4918" lon="1.51811">
        <ele>194.97</ele>
        <time>2018-12-01T08:28:02.850Z</time>
      </trkpt>
      <trkpt lat="43.49185" lon="1.51821">
        <ele>194.909</ele>
        <time>2018-12-01T08:28:10.493Z</time>
      </trkpt>
      <trkpt lat="43.49194" lon="1.51827">
        <ele>194.501</ele>
        <time>2018-12-01T08:28:18.186Z</time>
      </trkpt>
      <trkpt lat="43.49202" lon="1.51834">
        <ele>193.759</ele>
        <time>2018-12-01T08:28:25.346Z</time>
      </trkpt>
      <trkpt lat="43.49211" lon="1.51838">
        <ele>192.85</ele>
        <time>2018-12-01T08:28:32.066Z</time>
      </trkpt>
      <trkpt lat="43.4922" lon="1.51841">
        <ele>192.039</ele>
        <time>2018-12-01T08:28:39.885Z</time>
      </trkpt>
      <trkpt lat="43.49228" lon="1.5185">
        <ele>191.431</ele>
        <time>2018-12-01T08:28:49.452Z</time>
      </trkpt>
      <trkpt lat="43.49235" lon="1.51858">
        <ele>190.895</ele>
        <time>2018-12-01T08:28:58.804Z</time>
      </trkpt>
      <trkpt lat="43.49239" lon="1.5187">
        <ele>190.105</ele>
        <time>2018-12-01T08:29:07.543Z</time>
      </trkpt>
      <trkpt lat="43.49244" lon="1.51881">
        <ele>188.891</ele>
        <time>2018-12-01T08:29:15.024Z</time>
      </trkpt>
      <trkpt lat="43.49252" lon="1.51889">
        <ele>187.451</ele>
        <time>2018-12-01T08:29:23.004Z</time>
      </trkpt>
      <trkpt lat="43.49259" lon="1.51898">
        <ele>186.119</ele>
        <time>2018-12-01T08:29:33.543Z</time>
      </trkpt>
      <trkpt lat="43.49266" lon="1.51906">
        <ele>184.869</ele>
        <time>2018-12-01T08:29:45.487Z</time>
      </trkpt>
      <trkpt lat="43.49273" lon="1.51917">
        <ele>183.637</ele>
        <time>2018-12-01T08:29:53.295Z</time>
      </trkpt>
      <trkpt lat="43.4928" lon="1.51925">
        <ele>182.73</ele>
        <time>2018-12-01T08:29:59.560Z</time>
      </trkpt>
      <trkpt lat="43.49287" lon="1.51932">
        <ele>182.209</ele>
        <time>2018-12-01T08:30:06.369Z</time>
      </trkpt>
      <trkpt lat="43.49296" lon="1.51937">
        <ele>181.507</ele>
        <time>2018-12-01T08:30:14.026Z</time>
      </trkpt>
      <trkpt lat="43.49304" lon="1.51945">
        <ele>180.399</ele>
        <time>2018-12-01T08:30:19.892Z</time>
      </trkpt>
      <trkpt lat="43.49312" lon="1.5195">
        <ele>179.191</ele>
        <time>2018-12-01T08:30:25.286Z</time>
      </trkpt>
      <trkpt lat="43.49321" lon="1.51956">
        <ele>178.025</ele>
        <time>2018-12-01T08:30:31.480Z</time>
      </trkpt>
      <trkpt lat="43.4933" lon="1.51961">
        <ele>176.795</ele>
        <time>2018-12-01T08:30:38.553Z</time>
      </trkpt>
      <trkpt lat="43.49337" lon="1.51968">
        <ele>175.462</ele>
        <time>2018-12-01T08:30:46.266Z</time>
      </trkpt>
      <trkpt lat="43.49341" lon="1.5198">
        <ele>174.112</ele>
        <time>2018-12-01T08:30:54.962Z</time>
      </trkpt>
      <trkpt lat="43.49349" lon="1.51986">
        <ele>172.815</ele>
        <time>2018-12-01T08:31:04.042Z</time>
      </trkpt>
      <trkpt lat="43.49357" lon="1.51995">
        <ele>171.508</ele>
        <time>2018-12-01T08:31:13.095Z</time>
      </trkpt>
      <trkpt lat="43.49364" lon="1.52001">
        <ele>170.206</ele>
        <time>2018-12-01T08:31:20.666Z</time>
      </trkpt>
      <trkpt lat="43.49371" lon="1.52012">
        <ele>169.041</ele>
        <time>2018-12-01T08:31:28.110Z</time>
      </trkpt>
      <trkpt lat="43.49375" lon="1.52023">
        <ele>168.089</ele>
        <time>2018-12-01T08:31:34.238Z</time>
      </trkpt>
      <trkpt lat="43.49384" lon="1.52031">
        <ele>167.407</ele>
        <time>2018-12-01T08:31:40.423Z</time>
      </trkpt>
      <trkpt lat="43.49391" lon="1.5204">
        <ele>166.969</ele>
        <time>2018-12-01T08:31:46.870Z</time>
      </trkpt>
      <trkpt lat="43.49399" lon="1.52048">
        <ele>166.57</ele>
        <time>2018-12-01T08:31:53.468Z</time>
      </trkpt>
      <trkpt lat="43.49405" lon="1.52057">
        <ele>166.045</ele>
        <time>2018-12-01T08:32:01.102Z</time>
      </trkpt>
      <trkpt lat="43.49414" lon="1.52063">
        <ele>165.498</ele>
        <time>2018-12-01T08:32:09.109Z</time>
      </trkpt>
      <trkpt lat="43.49419" lon="1.52075">
        <ele>165.134</ele>
        <time>2018-12-01T08:32:18.767Z</time>
      </trkpt>
      <trkpt lat="43.49425" lon="1.52084">
        <ele>164.996</ele>
        <time>2018-12-01T08:32:28.292Z</time>
      </trkpt>
      <trkpt lat="43.49433" lon="1.52092">
        <ele>165.037</ele>
        <time>2018-12-01T08:32:36.934Z</time>
      </trkpt>
      <trkpt lat="43.49443" lon="1.52094">
        <ele>165.187</ele>
        <time>2018-12-01T08:32:43.974Z</time>
      </trkpt>
      <trkpt lat="43.49443" lon="1.52094">
        <ele>165.336</ele>
        <time>2018-12-01T08:32:53.974Z</time>
      </trkpt>
      <trkpt lat="43.49443" lon="1.52094">
        <ele>165.378</ele>
        <time>2018-12-01T08:32:54.074Z</time>
      </trkpt>
      <trkpt lat="43.49457" lon="1.52088">
        <ele>165.281</ele>
        <time>2018-12-01T08:34:39.274Z</time>
      </trkpt>
      <trkpt lat="43.49461" lon="1.52101">
        <ele>164.964</ele>
        <time>2018-12-01T08:34:50.416Z</time>
      </trkpt>
      <trkpt lat="43.49465" lon="1.52113">
        <ele>164.437</ele>
        <time>2018-12-01T08:34:58.965Z</time>
      </trkpt>
      <trkpt lat="43.49471" lon="1.52122">
        <ele>163.788</ele>
        <time>2018-12-01T08:35:06.683Z</time>
      </trkpt>
      <trkpt lat="43.49478" lon="1.52132">
        <ele>163.114</ele>
        <time>2018-12-01T08:35:14.159Z</time>
      </trkpt>
      <trkpt lat="43.49483" lon="1.52143">
        <ele>162.574</ele>
        <time>2018-12-01T08:35:21.118Z</time>
      </trkpt>
      <trkpt lat="43.4949" lon="1.52153">
        <ele>162.23</ele>
        <time>2018-12-01T08:35:28.041Z</time>
      </trkpt>
      <trkpt lat="43.49497" lon="1.52165">
        <ele>161.947</ele>
        <time>2018-12-01T08:35:34.934Z</time>
      </trkpt>
      <trkpt lat="43.49502" lon="1.52176">
        <ele>161.624</ele>
        <time>2018-12-01T08:35:41.540Z</time>
      </trkpt>
      <trkpt lat="43.49508" lon="1.52187">
        <ele>161.224</ele>
        <time>2018-12-01T08:35:48.198Z</time>
      </trkpt>
      <trkpt lat="43.49514" lon="1.52197">
        <ele>160.782</ele>
        <time>2018-12-01T08:35:54.787Z</time>
      </trkpt>
      <trkpt lat="43.4952" lon="1.52208">
        <ele>160.318</ele>
        <time>2018-12-01T08:36:01.584Z</time>
      </trkpt>
      <trkpt lat="43.49525" lon="1.52218">
        <ele>159.849</ele>
        <time>2018-12-01T08:36:08.128Z</time>
      </trkpt>
      <trkpt lat="43.49531" lon="1.52228">
        <ele>159.451</ele>
        <time>2018-12-01T08:36:15.460Z</time>
      </trkpt>
      <trkpt lat="43.49535" lon="1.52239">
        <ele>159.121</ele>
        <time>2018-12-01T08:36:23.240Z</time>
      </trkpt>
      <trkpt lat="43.4954" lon="1.5225">
        <ele>158.806</ele>
        <time>2018-12-01T08:36:30.436Z</time>
      </trkpt>
      <trkpt lat="43.49545" lon="1.5226">
        <ele>158.547</ele>
        <time>2018-12-01T08:36:37.237Z</time>
      </trkpt>
      <trkpt lat="43.4955" lon="1.52273">
        <ele>158.389</ele>
        <time>2018-12-01T08:36:45.063Z</time>
      </trkpt>
      <trkpt lat="43.49555" lon="1.52285">
        <ele>158.265</ele>
        <time>2018-12-01T08:36:52.617Z</time>
      </trkpt>
      <trkpt lat="43.4956" lon="1.52297">
        <ele>158.115</ele>
        <time>2018-12-01T08:37:00.037Z</time>
      </trkpt>
      <trkpt lat="43.49565" lon="1.52308">
        <ele>158.019</ele>
        <time>2018-12-01T08:37:06.758Z</time>
      </trkpt>
      <trkpt lat="43.49571" lon="1.52319">
        <ele>158.047</ele>
        <time>2018-12-01T08:37:14.385Z</time>
      </trkpt>
      <trkpt lat="43.49576" lon="1.5233">
        <ele>158.1</ele>
        <time>2018-12-01T08:37:21.624Z</time>
      </trkpt>
      <trkpt lat="43.4958" lon="1.52341">
        <ele>158.081</ele>
        <time>2018-12-01T08:37:28.748Z</time>
      </trkpt>
      <trkpt lat="43.49586" lon="1.52352">
        <ele>158.034</ele>
        <time>2018-12-01T08:37:36.512Z</time>
      </trkpt>
      <trkpt lat="43.49591" lon="1.52363">
        <ele>158.029</ele>
        <time>2018-12-01T08:37:44.129Z</time>
      </trkpt>
      <trkpt lat="43.49596" lon="1.52374">
        <ele>158.077</ele>
        <time>2018-12-01T08:37:50.627Z</time>
      </trkpt>
      <trkpt lat="43.49601" lon="1.52386">
        <ele>158.168</ele>
        <time>2018-12-01T08:37:57.186Z</time>
      </trkpt>
      <trkpt lat="43.49605" lon="1.52397">
        <ele>158.327</ele>
        <time>2018-12-01T08:38:03.278Z</time>
      </trkpt>
      <trkpt lat="43.4961" lon="1.5241">
        <ele>158.56</ele>
        <time>2018-12-01T08:38:10.739Z</time>
      </trkpt>
      <trkpt lat="43.49614" lon="1.52422">
        <ele>158.794</ele>
        <time>2018-12-01T08:38:17.785Z</time>
      </trkpt>
      <trkpt lat="43.49616" lon="1.52435">
        <ele>158.96</ele>
        <time>2018-12-01T08:38:24.905Z</time>
      </trkpt>
      <trkpt lat="43.49621" lon="1.52446">
        <ele>159.045</ele>
        <time>2018-12-01T08:38:32.106Z</time>
      </trkpt>
      <trkpt lat="43.49625" lon="1.52457">
        <ele>159.051</ele>
        <time>2018-12-01T08:38:39.743Z</time>
      </trkpt>
      <trkpt lat="43.49631" lon="1.52467">
        <ele>158.999</ele>
        <time>2018-12-01T08:38:47.728Z</time>
      </trkpt>
      <trkpt lat="43.49637" lon="1.52477">
        <ele>158.902</ele>
        <time>2018-12-01T08:38:55.389Z</time>
      </trkpt>
      <trkpt lat="43.49644" lon="1.52486">
        <ele>158.766</ele>
        <time>2018-12-01T08:39:02.917Z</time>
      </trkpt>
      <trkpt lat="43.49651" lon="1.52495">
        <ele>158.611</ele>
        <time>2018-12-01T08:39:10.081Z</time>
      </trkpt>
      <trkpt lat="43.49657" lon="1.52505">
        <ele>158.431</ele>
        <time>2018-12-01T08:39:16.910Z</time>
      </trkpt>
      <trkpt lat="43.49665" lon="1.52514">
        <ele>158.205</ele>
        <time>2018-12-01T08:39:24.710Z</time>
      </trkpt>
      <trkpt lat="43.49672" lon="1.52523">
        <ele>157.987</ele>
        <time>2018-12-01T08:39:31.687Z</time>
      </trkpt>
      <trkpt lat="43.4968" lon="1.5253">
        <ele>157.861</ele>
        <time>2018-12-01T08:39:39.442Z</time>
      </trkpt>
      <trkpt lat="43.49687" lon="1.52539">
        <ele>157.829</ele>
        <time>2018-12-01T08:39:47.692Z</time>
      </trkpt>
      <trkpt lat="43.49695" lon="1.52548">
        <ele>157.832</ele>
        <time>2018-12-01T08:39:56.470Z</time>
      </trkpt>
      <trkpt lat="43.49703" lon="1.52556">
        <ele>157.798</ele>
        <time>2018-12-01T08:40:04.993Z</time>
      </trkpt>
      <trkpt lat="43.4971" lon="1.52565">
        <ele>157.713</ele>
        <time>2018-12-01T08:40:12.745Z</time>
      </trkpt>
      <trkpt lat="43.49717" lon="1.52572">
        <ele>157.629</ele>
        <time>2018-12-01T08:40:19.747Z</time>
      </trkpt>
      <trkpt lat="43.49725" lon="1.5258">
        <ele>157.557</ele>
        <time>2018-12-01T08:40:26.601Z</time>
      </trkpt>
      <trkpt lat="43.49733" lon="1.52588">
        <ele>157.435</ele>
        <time>2018-12-01T08:40:33.556Z</time>
      </trkpt>
      <trkpt lat="43.4974" lon="1.52596">
        <ele>157.242</ele>
        <time>2018-12-01T08:40:40.536Z</time>
      </trkpt>
      <trkpt lat="43.49748" lon="1.52603">
        <ele>157.018</ele>
        <time>2018-12-01T08:40:47.449Z</time>
      </trkpt>
      <trkpt lat="43.49754" lon="1.52612">
        <ele>156.804</ele>
        <time>2018-12-01T08:40:54.360Z</time>
      </trkpt>
      <trkpt lat="43.49759" lon="1.52623">
        <ele>156.61</ele>
        <time>2018-12-01T08:41:01.205Z</time>
      </trkpt>
      <trkpt lat="43.49766" lon="1.52634">
        <ele>156.435</ele>
        <time>2018-12-01T08:41:09.061Z</time>
      </trkpt>
      <trkpt lat="43.4977" lon="1.52645">
        <ele>156.298</ele>
        <time>2018-12-01T08:41:15.946Z</time>
      </trkpt>
      <trkpt lat="43.49774" lon="1.52656">
        <ele>156.23</ele>
        <time>2018-12-01T08:41:22.885Z</time>
      </trkpt>
      <trkpt lat="43.4978" lon="1.52668">
        <ele>156.223</ele>
        <time>2018-12-01T08:41:30.616Z</time>
      </trkpt>
      <trkpt lat="43.49784" lon="1.52679">
        <ele>156.258</ele>
        <time>2018-12-01T08:41:37.513Z</time>
      </trkpt>
      <trkpt lat="43.4979" lon="1.5269">
        <ele>156.342</ele>
        <time>2018-12-01T08:41:44.666Z</time>
      </trkpt>
      <trkpt lat="43.49797" lon="1.52698">
        <ele>156.503</ele>
        <time>2018-12-01T08:41:51.495Z</time>
      </trkpt>
      <trkpt lat="43.49803" lon="1.52708">
        <ele>156.72</ele>
        <time>2018-12-01T08:41:58.516Z</time>
      </trkpt>
      <trkpt lat="43.49808" lon="1.52719">
        <ele>156.927</ele>
        <time>2018-12-01T08:42:05.871Z</time>
      </trkpt>
      <trkpt lat="43.49815" lon="1.5273">
        <ele>157.076</ele>
        <time>2018-12-01T08:42:13.354Z</time>
      </trkpt>
      <trkpt lat="43.4982" lon="1.52741">
        <ele>157.167</ele>
        <time>2018-12-01T08:42:20.060Z</time>
      </trkpt>
      <trkpt lat="43.49826" lon="1.52751">
        <ele>157.22</ele>
        <time>2018-12-01T08:42:26.754Z</time>
      </trkpt>
      <trkpt lat="43.49832" lon="1.52761">
        <ele>157.188</ele>
        <time>2018-12-01T08:42:33.041Z</time>
      </trkpt>
      <trkpt lat="43.49838" lon="1.52772">
        <ele>157.021</ele>
        <time>2018-12-01T08:42:39.902Z</time>
      </trkpt>
      <trkpt lat="43.49842" lon="1.52784">
        <ele>156.807</ele>
        <time>2018-12-01T08:42:46.661Z</time>
      </trkpt>
      <trkpt lat="43.49848" lon="1.52795">
        <ele>156.683</ele>
        <time>2018-12-01T08:42:53.588Z</time>
      </trkpt>
      <trkpt lat="43.49855" lon="1.52805">
        <ele>156.68</ele>
        <time>2018-12-01T08:43:01.136Z</time>
      </trkpt>
      <trkpt lat="43.49861" lon="1.52814">
        <ele>156.733</ele>
        <time>2018-12-01T08:43:07.658Z</time>
      </trkpt>
      <trkpt lat="43.49868" lon="1.52825">
        <ele>156.776</ele>
        <time>2018-12-01T08:43:14.780Z</time>
      </trkpt>
      <trkpt lat="43.49874" lon="1.52836">
        <ele>156.793</ele>
        <time>2018-12-01T08:43:22.790Z</time>
      </trkpt>
      <trkpt lat="43.49875" lon="1.52849">
        <ele>156.793</ele>
        <time>2018-12-01T08:43:30.210Z</time>
      </trkpt>
      <trkpt lat="43.4987" lon="1.52858">
        <ele>156.745</ele>
        <time>2018-12-01T08:43:36.623Z</time>
      </trkpt>
      <trkpt lat="43.49864" lon="1.52868">
        <ele>156.602</ele>
        <time>2018-12-01T08:43:42.755Z</time>
      </trkpt>
      <trkpt lat="43.49857" lon="1.52877">
        <ele>156.354</ele>
        <time>2018-12-01T08:43:49.254Z</time>
      </trkpt>
      <trkpt lat="43.49848" lon="1.52883">
        <ele>156.029</ele>
        <time>2018-12-01T08:43:56.562Z</time>
      </trkpt>
      <trkpt lat="43.4984" lon="1.52891">
        <ele>155.686</ele>
        <time>2018-12-01T08:44:03.916Z</time>
      </trkpt>
      <trkpt lat="43.49834" lon="1.529">
        <ele>155.393</ele>
        <time>2018-12-01T08:44:10.575Z</time>
      </trkpt>
      <trkpt lat="43.49826" lon="1.52908">
        <ele>155.177</ele>
        <time>2018-12-01T08:44:17.288Z</time>
      </trkpt>
      <trkpt lat="43.49821" lon="1.52917">
        <ele>155.038</ele>
        <time>2018-12-01T08:44:23.727Z</time>
      </trkpt>
      <trkpt lat="43.49812" lon="1.52925">
        <ele>154.959</ele>
        <time>2018-12-01T08:44:30.773Z</time>
      </trkpt>
      <trkpt lat="43.49805" lon="1.52933">
        <ele>154.848</ele>
        <time>2018-12-01T08:44:38.034Z</time>
      </trkpt>
      <trkpt lat="43.49798" lon="1.52942">
        <ele>154.593</ele>
        <time>2018-12-01T08:44:44.885Z</time>
      </trkpt>
      <trkpt lat="43.49791" lon="1.52949">
        <ele>154.256</ele>
        <time>2018-12-01T08:44:51.409Z</time>
      </trkpt>
      <trkpt lat="43.49783" lon="1.52957">
        <ele>153.962</ele>
        <time>2018-12-01T08:44:58.242Z</time>
      </trkpt>
      <trkpt lat="43.49775" lon="1.52964">
        <ele>153.741</ele>
        <time>2018-12-01T08:45:05.074Z</time>
      </trkpt>
      <trkpt lat="43.49766" lon="1.52972">
        <ele>153.623</ele>
        <time>2018-12-01T08:45:12.453Z</time>
      </trkpt>
      <trkpt lat="43.49759" lon="1.52982">
        <ele>153.675</ele>
        <time>2018-12-01T08:45:19.886Z</time>
      </trkpt>
      <trkpt lat="43.49751" lon="1.5299">
        <ele>153.91</ele>
        <time>2018-12-01T08:45:26.958Z</time>
      </trkpt>
      <trkpt lat="43.49743" lon="1.52997">
        <ele>154.227</ele>
        <time>2018-12-01T08:45:33.515Z</time>
      </trkpt>
      <trkpt lat="43.49735" lon="1.53006">
        <ele>154.469</ele>
        <time>2018-12-01T08:45:40.628Z</time>
      </trkpt>
      <trkpt lat="43.49727" lon="1.53013">
        <ele>154.587</ele>
        <time>2018-12-01T08:45:47.416Z</time>
      </trkpt>
      <trkpt lat="43.4972" lon="1.53021">
        <ele>154.642</ele>
        <time>2018-12-01T08:45:54.066Z</time>
      </trkpt>
      <trkpt lat="43.49716" lon="1.53035">
        <ele>154.694</ele>
        <time>2018-12-01T08:46:01.610Z</time>
      </trkpt>
      <trkpt lat="43.49718" lon="1.53048">
        <ele>154.767</ele>
        <time>2018-12-01T08:46:08.594Z</time>
      </trkpt>
      <trkpt lat="43.4972" lon="1.53061">
        <ele>154.863</ele>
        <time>2018-12-01T08:46:16.023Z</time>
      </trkpt>
      <trkpt lat="43.49722" lon="1.53074">
        <ele>154.997</ele>
        <time>2018-12-01T08:46:23.629Z</time>
      </trkpt>
      <trkpt lat="43.49725" lon="1.53087">
        <ele>155.216</ele>
        <time>2018-12-01T08:46:31.598Z</time>
      </trkpt>
      <trkpt lat="43.49729" lon="1.53101">
        <ele>155.546</ele>
        <time>2018-12-01T08:46:39.343Z</time>
      </trkpt>
      <trkpt lat="43.49732" lon="1.53114">
        <ele>155.947</ele>
        <time>2018-12-01T08:46:46.706Z</time>
      </trkpt>
      <trkpt lat="43.49739" lon="1.53124">
        <ele>156.343</ele>
        <time>2018-12-01T08:46:53.392Z</time>
      </trkpt>
      <trkpt lat="43.49745" lon="1.53134">
        <ele>156.731</ele>
        <time>2018-12-01T08:47:00.353Z</time>
      </trkpt>
      <trkpt lat="43.49749" lon="1.53146">
        <ele>157.154</ele>
        <time>2018-12-01T08:47:07.982Z</time>
      </trkpt>
      <trkpt lat="43.49749" lon="1.53146">
        <ele>157.539</ele>
        <time>2018-12-01T08:47:14.981Z</time>
      </trkpt>
      <trkpt lat="43.49749" lon="1.53146">
        <ele>157.705</ele>
        <time>2018-12-01T08:47:59.751Z</time>
      </trkpt>
      <trkpt lat="43.49753" lon="1.53162">
        <ele>157.621</ele>
        <time>2018-12-01T08:48:15.752Z</time>
      </trkpt>
      <trkpt lat="43.49761" lon="1.53169">
        <ele>157.457</ele>
        <time>2018-12-01T08:48:23.887Z</time>
      </trkpt>
      <trkpt lat="43.49767" lon="1.53179">
        <ele>157.352</ele>
        <time>2018-12-01T08:48:31.670Z</time>
      </trkpt>
      <trkpt lat="43.49773" lon="1.53189">
        <ele>157.279</ele>
        <time>2018-12-01T08:48:38.418Z</time>
      </trkpt>
      <trkpt lat="43.49778" lon="1.532">
        <ele>157.189</ele>
        <time>2018-12-01T08:48:43.978Z</time>
      </trkpt>
      <trkpt lat="43.49778" lon="1.532">
        <ele>157.098</ele>
        <time>2018-12-01T08:48:54.978Z</time>
      </trkpt>
      <trkpt lat="43.49778" lon="1.532">
        <ele>157.035</ele>
        <time>2018-12-01T08:48:55.945Z</time>
      </trkpt>
      <trkpt lat="43.49782" lon="1.53217">
        <ele>156.99</ele>
        <time>2018-12-01T08:49:20.901Z</time>
      </trkpt>
      <trkpt lat="43.49778" lon="1.53229">
        <ele>156.91</ele>
        <time>2018-12-01T08:49:33.057Z</time>
      </trkpt>
      <trkpt lat="43.49771" lon="1.53239">
        <ele>156.757</ele>
        <time>2018-12-01T08:49:43.328Z</time>
      </trkpt>
      <trkpt lat="43.49763" lon="1.53246">
        <ele>156.558</ele>
        <time>2018-12-01T08:49:50.431Z</time>
      </trkpt>
      <trkpt lat="43.49756" lon="1.53255">
        <ele>156.35</ele>
        <time>2018-12-01T08:49:58.156Z</time>
      </trkpt>
      <trkpt lat="43.4975" lon="1.53264">
        <ele>156.099</ele>
        <time>2018-12-01T08:50:05.625Z</time>
      </trkpt>
      <trkpt lat="43.49744" lon="1.53274">
        <ele>155.765</ele>
        <time>2018-12-01T08:50:13.733Z</time>
      </trkpt>
      <trkpt lat="43.49741" lon="1.53286">
        <ele>155.43</ele>
        <time>2018-12-01T08:50:21.890Z</time>
      </trkpt>
      <trkpt lat="43.49733" lon="1.53294">
        <ele>155.281</ele>
        <time>2018-12-01T08:50:30.352Z</time>
      </trkpt>
      <trkpt lat="43.49726" lon="1.53304">
        <ele>155.358</ele>
        <time>2018-12-01T08:50:39.207Z</time>
      </trkpt>
      <trkpt lat="43.49723" lon="1.53316">
        <ele>155.522</ele>
        <time>2018-12-01T08:50:47.204Z</time>
      </trkpt>
      <trkpt lat="43.49717" lon="1.53327">
        <ele>155.682</ele>
        <time>2018-12-01T08:50:54.933Z</time>
      </trkpt>
      <trkpt lat="43.49711" lon="1.53339">
        <ele>155.863</ele>
        <time>2018-12-01T08:51:03.033Z</time>
      </trkpt>
      <trkpt lat="43.49706" lon="1.5335">
        <ele>156.067</ele>
        <time>2018-12-01T08:51:11.455Z</time>
      </trkpt>
      <trkpt lat="43.49698" lon="1.53358">
        <ele>156.255</ele>
        <time>2018-12-01T08:51:21.013Z</time>
      </trkpt>
      <trkpt lat="43.49693" lon="1.53369">
        <ele>156.374</ele>
        <time>2018-12-01T08:51:28.619Z</time>
      </trkpt>
      <trkpt lat="43.49687" lon="1.5338">
        <ele>156.373</ele>
        <time>2018-12-01T08:51:35.972Z</time>
      </trkpt>
      <trkpt lat="43.49687" lon="1.5338">
        <ele>156.278</ele>
        <time>2018-12-01T08:51:38.971Z</time>
      </trkpt>
      <trkpt lat="43.49687" lon="1.5338">
        <ele>156.175</ele>
        <time>2018-12-01T08:51:39.071Z</time>
      </trkpt>
      <trkpt lat="43.49683" lon="1.53392">
        <ele>156.087</ele>
        <time>2018-12-01T08:51:54.756Z</time>
      </trkpt>
      <trkpt lat="43.49677" lon="1.53402">
        <ele>155.965</ele>
        <time>2018-12-01T08:52:04.471Z</time>
      </trkpt>
      <trkpt lat="43.49671" lon="1.53413">
        <ele>155.587</ele>
        <time>2018-12-01T08:52:12.918Z</time>
      </trkpt>
      <trkpt lat="43.49665" lon="1.53423">
        <ele>155.032</ele>
        <time>2018-12-01T08:52:20.833Z</time>
      </trkpt>
      <trkpt lat="43.49659" lon="1.53433">
        <ele>154.546</ele>
        <time>2018-12-01T08:52:28.588Z</time>
      </trkpt>
      <trkpt lat="43.49652" lon="1.53443">
        <ele>154.18</ele>
        <time>2018-12-01T08:52:35.690Z</time>
      </trkpt>
      <trkpt lat="43.49646" lon="1.53453">
        <ele>153.859</ele>
        <time>2018-12-01T08:52:42.838Z</time>
      </trkpt>
      <trkpt lat="43.4964" lon="1.53463">
        <ele>153.563</ele>
        <time>2018-12-01T08:52:50.149Z</time>
      </trkpt>
      <trkpt lat="43.49632" lon="1.53471">
        <ele>153.321</ele>
        <time>2018-12-01T08:52:57.213Z</time>
      </trkpt>
      <trkpt lat="43.49625" lon="1.5348">
        <ele>153.164</ele>
        <time>2018-12-01T08:53:04.154Z</time>
      </trkpt>
      <trkpt lat="43.49616" lon="1.53487">
        <ele>153.145</ele>
        <time>2018-12-01T08:53:11.079Z</time>
      </trkpt>
      <trkpt lat="43.49611" lon="1.53498">
        <ele>153.29</ele>
        <time>2018-12-01T08:53:16.932Z</time>
      </trkpt>
      <trkpt lat="43.49605" lon="1.53507">
        <ele>153.601</ele>
        <time>2018-12-01T08:53:22.334Z</time>
      </trkpt>
      <trkpt lat="43.49597" lon="1.53514">
        <ele>153.998</ele>
        <time>2018-12-01T08:53:28.479Z</time>
      </trkpt>
      <trkpt lat="43.4959" lon="1.53522">
        <ele>154.331</ele>
        <time>2018-12-01T08:53:34.967Z</time>
      </trkpt>
      <trkpt lat="43.4959" lon="1.53522">
        <ele>154.502</ele>
        <time>2018-12-01T08:53:35.967Z</time>
      </trkpt>
      <trkpt lat="43.4959" lon="1.53522">
        <ele>154.518</ele>
        <time>2018-12-01T08:53:43.275Z</time>
      </trkpt>
      <trkpt lat="43.49587" lon="1.53534">
        <ele>154.357</ele>
        <time>2018-12-01T08:54:11.315Z</time>
      </trkpt>
      <trkpt lat="43.49593" lon="1.53545">
        <ele>154.555</ele>
        <time>2018-12-01T08:54:20.754Z</time>
      </trkpt>
      <trkpt lat="43.49596" lon="1.53557">
        <ele>155.339</ele>
        <time>2018-12-01T08:54:28.449Z</time>
      </trkpt>
      <trkpt lat="43.49598" lon="1.5357">
        <ele>156.425</ele>
        <time>2018-12-01T08:54:36.227Z</time>
      </trkpt>
      <trkpt lat="43.49591" lon="1.53581">
        <ele>157.069</ele>
        <time>2018-12-01T08:54:44.643Z</time>
      </trkpt>
      <trkpt lat="43.49583" lon="1.53587">
        <ele>156.876</ele>
        <time>2018-12-01T08:54:53.293Z</time>
      </trkpt>
      <trkpt lat="43.49573" lon="1.53591">
        <ele>156.046</ele>
        <time>2018-12-01T08:55:01.288Z</time>
      </trkpt>
      <trkpt lat="43.49564" lon="1.53596">
        <ele>155.113</ele>
        <time>2018-12-01T08:55:09.361Z</time>
      </trkpt>
      <trkpt lat="43.49555" lon="1.53599">
        <ele>154.423</ele>
        <time>2018-12-01T08:55:17.113Z</time>
      </trkpt>
      <trkpt lat="43.49545" lon="1.53603">
        <ele>153.936</ele>
        <time>2018-12-01T08:55:25.338Z</time>
      </trkpt>
      <trkpt lat="43.49536" lon="1.53605">
        <ele>153.558</ele>
        <time>2018-12-01T08:55:34.086Z</time>
      </trkpt>
      <trkpt lat="43.49526" lon="1.53606">
        <ele>153.325</ele>
        <time>2018-12-01T08:55:43.095Z</time>
      </trkpt>
      <trkpt lat="43.49517" lon="1.53609">
        <ele>153.168</ele>
        <time>2018-12-01T08:55:52.260Z</time>
      </trkpt>
      <trkpt lat="43.49507" lon="1.53611">
        <ele>152.936</ele>
        <time>2018-12-01T08:56:01.313Z</time>
      </trkpt>
      <trkpt lat="43.49498" lon="1.53614">
        <ele>152.636</ele>
        <time>2018-12-01T08:56:08.603Z</time>
      </trkpt>
      <trkpt lat="43.49488" lon="1.53616">
        <ele>152.389</ele>
        <time>2018-12-01T08:56:16.299Z</time>
      </trkpt>
      <trkpt lat="43.49478" lon="1.53618">
        <ele>152.25</ele>
        <time>2018-12-01T08:56:24.589Z</time>
      </trkpt>
      <trkpt lat="43.49469" lon="1.53621">
        <ele>152.198</ele>
        <time>2018-12-01T08:56:33.233Z</time>
      </trkpt>
      <trkpt lat="43.49461" lon="1.53624">
        <ele>152.162</ele>
        <time>2018-12-01T08:56:41.592Z</time>
      </trkpt>
      <trkpt lat="43.49452" lon="1.53628">
        <ele>152.076</ele>
        <time>2018-12-01T08:56:50.116Z</time>
      </trkpt>
      <trkpt lat="43.49442" lon="1.5363">
        <ele>151.969</ele>
        <time>2018-12-01T08:56:58.698Z</time>
      </trkpt>
      <trkpt lat="43.49433" lon="1.53634">
        <ele>151.911</ele>
        <time>2018-12-01T08:57:06.380Z</time>
      </trkpt>
      <trkpt lat="43.49423" lon="1.53638">
        <ele>151.947</ele>
        <time>2018-12-01T08:57:14.845Z</time>
      </trkpt>
      <trkpt lat="43.49414" lon="1.53641">
        <ele>152.104</ele>
        <time>2018-12-01T08:57:22.870Z</time>
      </trkpt>
      <trkpt lat="43.49405" lon="1.53643">
        <ele>152.334</ele>
        <time>2018-12-01T08:57:31.584Z</time>
      </trkpt>
      <trkpt lat="43.49395" lon="1.53644">
        <ele>152.526</ele>
        <time>2018-12-01T08:57:39.931Z</time>
      </trkpt>
      <trkpt lat="43.49385" lon="1.53644">
        <ele>152.639</ele>
        <time>2018-12-01T08:57:47.479Z</time>
      </trkpt>
      <trkpt lat="43.49376" lon="1.53646">
        <ele>152.715</ele>
        <time>2018-12-01T08:57:54.439Z</time>
      </trkpt>
      <trkpt lat="43.49366" lon="1.53647">
        <ele>152.732</ele>
        <time>2018-12-01T08:58:01.733Z</time>
      </trkpt>
      <trkpt lat="43.49357" lon="1.53651">
        <ele>152.61</ele>
        <time>2018-12-01T08:58:09.152Z</time>
      </trkpt>
      <trkpt lat="43.49348" lon="1.53658">
        <ele>152.299</ele>
        <time>2018-12-01T08:58:17.039Z</time>
      </trkpt>
      <trkpt lat="43.49339" lon="1.53662">
        <ele>151.896</ele>
        <time>2018-12-01T08:58:26.121Z</time>
      </trkpt>
      <trkpt lat="43.49329" lon="1.53663">
        <ele>151.705</ele>
        <time>2018-12-01T08:58:36.839Z</time>
      </trkpt>
      <trkpt lat="43.4932" lon="1.53663">
        <ele>151.872</ele>
        <time>2018-12-01T08:58:45.485Z</time>
      </trkpt>
      <trkpt lat="43.4931" lon="1.53661">
        <ele>152.159</ele>
        <time>2018-12-01T08:58:52.628Z</time>
      </trkpt>
      <trkpt lat="43.49301" lon="1.53662">
        <ele>152.354</ele>
        <time>2018-12-01T08:59:00.047Z</time>
      </trkpt>
      <trkpt lat="43.49291" lon="1.53661">
        <ele>152.474</ele>
        <time>2018-12-01T08:59:07.552Z</time>
      </trkpt>
      <trkpt lat="43.49282" lon="1.53665">
        <ele>152.576</ele>
        <time>2018-12-01T08:59:15.266Z</time>
      </trkpt>
      <trkpt lat="43.49273" lon="1.53666">
        <ele>152.678</ele>
        <time>2018-12-01T08:59:23.315Z</time>
      </trkpt>
      <trkpt lat="43.49263" lon="1.53665">
        <ele>152.857</ele>
        <time>2018-12-01T08:59:30.394Z</time>
      </trkpt>
      <trkpt lat="43.49253" lon="1.53665">
        <ele>153.253</ele>
        <time>2018-12-01T08:59:36.738Z</time>
      </trkpt>
      <trkpt lat="43.49244" lon="1.53664">
        <ele>153.789</ele>
        <time>2018-12-01T08:59:44.173Z</time>
      </trkpt>
      <trkpt lat="43.49235" lon="1.53662">
        <ele>154.184</ele>
        <time>2018-12-01T08:59:51.655Z</time>
      </trkpt>
      <trkpt lat="43.49224" lon="1.5366">
        <ele>154.332</ele>
        <time>2018-12-01T08:59:59.995Z</time>
      </trkpt>
      <trkpt lat="43.49215" lon="1.5366">
        <ele>154.331</ele>
        <time>2018-12-01T09:00:07.789Z</time>
      </trkpt>
      <trkpt lat="43.49206" lon="1.53658">
        <ele>154.284</ele>
        <time>2018-12-01T09:00:15.849Z</time>
      </trkpt>
      <trkpt lat="43.49196" lon="1.53658">
        <ele>154.229</ele>
        <time>2018-12-01T09:00:23.925Z</time>
      </trkpt>
      <trkpt lat="43.49187" lon="1.53657">
        <ele>154.171</ele>
        <time>2018-12-01T09:00:30.599Z</time>
      </trkpt>
      <trkpt lat="43.49178" lon="1.53657">
        <ele>154.131</ele>
        <time>2018-12-01T09:00:36.907Z</time>
      </trkpt>
      <trkpt lat="43.49168" lon="1.53656">
        <ele>154.122</ele>
        <time>2018-12-01T09:00:43.828Z</time>
      </trkpt>
      <trkpt lat="43.49158" lon="1.53656">
        <ele>154.087</ele>
        <time>2018-12-01T09:00:50.884Z</time>
      </trkpt>
      <trkpt lat="43.49149" lon="1.53651">
        <ele>153.976</ele>
        <time>2018-12-01T09:00:58.401Z</time>
      </trkpt>
      <trkpt lat="43.4914" lon="1.5365">
        <ele>153.766</ele>
        <time>2018-12-01T09:01:05.948Z</time>
      </trkpt>
      <trkpt lat="43.49131" lon="1.53647">
        <ele>153.429</ele>
        <time>2018-12-01T09:01:13.736Z</time>
      </trkpt>
      <trkpt lat="43.49122" lon="1.53645">
        <ele>152.99</ele>
        <time>2018-12-01T09:01:21.663Z</time>
      </trkpt>
      <trkpt lat="43.49113" lon="1.53643">
        <ele>152.56</ele>
        <time>2018-12-01T09:01:29.618Z</time>
      </trkpt>
      <trkpt lat="43.49104" lon="1.5364">
        <ele>152.248</ele>
        <time>2018-12-01T09:01:37.504Z</time>
      </trkpt>
      <trkpt lat="43.49094" lon="1.53637">
        <ele>152.107</ele>
        <time>2018-12-01T09:01:44.792Z</time>
      </trkpt>
      <trkpt lat="43.49085" lon="1.53633">
        <ele>152.109</ele>
        <time>2018-12-01T09:01:51.183Z</time>
      </trkpt>
      <trkpt lat="43.49075" lon="1.53631">
        <ele>152.187</ele>
        <time>2018-12-01T09:01:58.445Z</time>
      </trkpt>
      <trkpt lat="43.49066" lon="1.53626">
        <ele>152.28</ele>
        <time>2018-12-01T09:02:06.165Z</time>
      </trkpt>
      <trkpt lat="43.49057" lon="1.53624">
        <ele>152.371</ele>
        <time>2018-12-01T09:02:13.534Z</time>
      </trkpt>
      <trkpt lat="43.49047" lon="1.53622">
        <ele>152.504</ele>
        <time>2018-12-01T09:02:21.183Z</time>
      </trkpt>
      <trkpt lat="43.49038" lon="1.53622">
        <ele>152.733</ele>
        <time>2018-12-01T09:02:28.962Z</time>
      </trkpt>
      <trkpt lat="43.49029" lon="1.53625">
        <ele>153.049</ele>
        <time>2018-12-01T09:02:36.175Z</time>
      </trkpt>
      <trkpt lat="43.49019" lon="1.5363">
        <ele>153.375</ele>
        <time>2018-12-01T09:02:44.114Z</time>
      </trkpt>
      <trkpt lat="43.49011" lon="1.53636">
        <ele>153.696</ele>
        <time>2018-12-01T09:02:51.673Z</time>
      </trkpt>
      <trkpt lat="43.49001" lon="1.53642">
        <ele>154.09</ele>
        <time>2018-12-01T09:02:59.117Z</time>
      </trkpt>
      <trkpt lat="43.48993" lon="1.53649">
        <ele>154.511</ele>
        <time>2018-12-01T09:03:05.560Z</time>
      </trkpt>
      <trkpt lat="43.48986" lon="1.53657">
        <ele>154.796</ele>
        <time>2018-12-01T09:03:13.393Z</time>
      </trkpt>
      <trkpt lat="43.4898" lon="1.53667">
        <ele>154.847</ele>
        <time>2018-12-01T09:03:22.740Z</time>
      </trkpt>
      <trkpt lat="43.48975" lon="1.53678">
        <ele>154.718</ele>
        <time>2018-12-01T09:03:34.764Z</time>
      </trkpt>
      <trkpt lat="43.48968" lon="1.53687">
        <ele>154.644</ele>
        <time>2018-12-01T09:03:48.294Z</time>
      </trkpt>
      <trkpt lat="43.48963" lon="1.53698">
        <ele>154.849</ele>
        <time>2018-12-01T09:03:56.975Z</time>
      </trkpt>
      <trkpt lat="43.4896" lon="1.53711">
        <ele>155.276</ele>
        <time>2018-12-01T09:04:05.263Z</time>
      </trkpt>
      <trkpt lat="43.48958" lon="1.53724">
        <ele>155.727</ele>
        <time>2018-12-01T09:04:12.304Z</time>
      </trkpt>
      <trkpt lat="43.4896" lon="1.53739">
        <ele>156.083</ele>
        <time>2018-12-01T09:04:19.540Z</time>
      </trkpt>
      <trkpt lat="43.48961" lon="1.53752">
        <ele>156.296</ele>
        <time>2018-12-01T09:04:26.025Z</time>
      </trkpt>
      <trkpt lat="43.48962" lon="1.53766">
        <ele>156.308</ele>
        <time>2018-12-01T09:04:33.503Z</time>
      </trkpt>
      <trkpt lat="43.48963" lon="1.53779">
        <ele>156.08</ele>
        <time>2018-12-01T09:04:41.359Z</time>
      </trkpt>
      <trkpt lat="43.48962" lon="1.53793">
        <ele>155.669</ele>
        <time>2018-12-01T09:04:51.897Z</time>
      </trkpt>
      <trkpt lat="43.48964" lon="1.53805">
        <ele>155.165</ele>
        <time>2018-12-01T09:05:02.850Z</time>
      </trkpt>
      <trkpt lat="43.48965" lon="1.53818">
        <ele>154.627</ele>
        <time>2018-12-01T09:05:10.718Z</time>
      </trkpt>
      <trkpt lat="43.48967" lon="1.53831">
        <ele>154.139</ele>
        <time>2018-12-01T09:05:18.083Z</time>
      </trkpt>
      <trkpt lat="43.48968" lon="1.53845">
        <ele>153.791</ele>
        <time>2018-12-01T09:05:25.504Z</time>
      </trkpt>
      <trkpt lat="43.4897" lon="1.53857">
        <ele>153.603</ele>
        <time>2018-12-01T09:05:32.922Z</time>
      </trkpt>
      <trkpt lat="43.48971" lon="1.5387">
        <ele>153.584</ele>
        <time>2018-12-01T09:05:39.761Z</time>
      </trkpt>
      <trkpt lat="43.48972" lon="1.53882">
        <ele>153.711</ele>
        <time>2018-12-01T09:05:46.888Z</time>
      </trkpt>
      <trkpt lat="43.48972" lon="1.53895">
        <ele>153.868</ele>
        <time>2018-12-01T09:05:54.794Z</time>
      </trkpt>
      <trkpt lat="43.48972" lon="1.53908">
        <ele>153.997</ele>
        <time>2018-12-01T09:06:03.090Z</time>
      </trkpt>
      <trkpt lat="43.48974" lon="1.53921">
        <ele>154.141</ele>
        <time>2018-12-01T09:06:10.632Z</time>
      </trkpt>
      <trkpt lat="43.48977" lon="1.53933">
        <ele>154.296</ele>
        <time>2018-12-01T09:06:17.451Z</time>
      </trkpt>
      <trkpt lat="43.48976" lon="1.53947">
        <ele>154.414</ele>
        <time>2018-12-01T09:06:25.027Z</time>
      </trkpt>
      <trkpt lat="43.48977" lon="1.5396">
        <ele>154.447</ele>
        <time>2018-12-01T09:06:33.374Z</time>
      </trkpt>
      <trkpt lat="43.48976" lon="1.53973">
        <ele>154.333</ele>
        <time>2018-12-01T09:06:42.902Z</time>
      </trkpt>
      <trkpt lat="43.48976" lon="1.53986">
        <ele>154.102</ele>
        <time>2018-12-01T09:06:52.101Z</time>
      </trkpt>
      <trkpt lat="43.48976" lon="1.53999">
        <ele>153.984</ele>
        <time>2018-12-01T09:07:00.842Z</time>
      </trkpt>
      <trkpt lat="43.48975" lon="1.54012">
        <ele>154.198</ele>
        <time>2018-12-01T09:07:08.125Z</time>
      </trkpt>
      <trkpt lat="43.48975" lon="1.54026">
        <ele>154.69</ele>
        <time>2018-12-01T09:07:15.855Z</time>
      </trkpt>
      <trkpt lat="43.48975" lon="1.54039">
        <ele>155.275</ele>
        <time>2018-12-01T09:07:22.451Z</time>
      </trkpt>
      <trkpt lat="43.48972" lon="1.54052">
        <ele>155.856</ele>
        <time>2018-12-01T09:07:28.777Z</time>
      </trkpt>
      <trkpt lat="43.48973" lon="1.54065">
        <ele>156.411</ele>
        <time>2018-12-01T09:07:35.474Z</time>
      </trkpt>
      <trkpt lat="43.48973" lon="1.54078">
        <ele>156.92</ele>
        <time>2018-12-01T09:07:43.006Z</time>
      </trkpt>
      <trkpt lat="43.48973" lon="1.54078">
        <ele>157.325</ele>
        <time>2018-12-01T09:07:44.005Z</time>
      </trkpt>
      <trkpt lat="43.48973" lon="1.54078">
        <ele>157.494</ele>
        <time>2018-12-01T09:07:44.685Z</time>
      </trkpt>
      <trkpt lat="43.48972" lon="1.5409">
        <ele>157.243</ele>
        <time>2018-12-01T09:08:01.299Z</time>
      </trkpt>
      <trkpt lat="43.48969" lon="1.54102">
        <ele>157.161</ele>
        <time>2018-12-01T09:08:11.054Z</time>
      </trkpt>
      <trkpt lat="43.48967" lon="1.54115">
        <ele>157.219</ele>
        <time>2018-12-01T09:08:19.394Z</time>
      </trkpt>
      <trkpt lat="43.48965" lon="1.54129">
        <ele>157.386</ele>
        <time>2018-12-01T09:08:26.452Z</time>
      </trkpt>
      <trkpt lat="43.48962" lon="1.5414">
        <ele>157.547</ele>
        <time>2018-12-01T09:08:33.463Z</time>
      </trkpt>
      <trkpt lat="43.4896" lon="1.54153">
        <ele>157.59</ele>
        <time>2018-12-01T09:08:41.435Z</time>
      </trkpt>
      <trkpt lat="43.48957" lon="1.54165">
        <ele>157.503</ele>
        <time>2018-12-01T09:08:49.995Z</time>
      </trkpt>
      <trkpt lat="43.48953" lon="1.54176">
        <ele>157.381</ele>
        <time>2018-12-01T09:08:58.381Z</time>
      </trkpt>
      <trkpt lat="43.48952" lon="1.5419">
        <ele>157.282</ele>
        <time>2018-12-01T09:09:06.191Z</time>
      </trkpt>
      <trkpt lat="43.48948" lon="1.54202">
        <ele>157.172</ele>
        <time>2018-12-01T09:09:12.227Z</time>
      </trkpt>
      <trkpt lat="43.48944" lon="1.54215">
        <ele>157</ele>
        <time>2018-12-01T09:09:19.660Z</time>
      </trkpt>
      <trkpt lat="43.48939" lon="1.54226">
        <ele>156.786</ele>
        <time>2018-12-01T09:09:27.237Z</time>
      </trkpt>
      <trkpt lat="43.48933" lon="1.54238">
        <ele>156.627</ele>
        <time>2018-12-01T09:09:35.425Z</time>
      </trkpt>
      <trkpt lat="43.4893" lon="1.5425">
        <ele>156.583</ele>
        <time>2018-12-01T09:09:42.014Z</time>
      </trkpt>
      <trkpt lat="43.48927" lon="1.54263">
        <ele>156.59</ele>
        <time>2018-12-01T09:09:48.890Z</time>
      </trkpt>
      <trkpt lat="43.48921" lon="1.54273">
        <ele>156.568</ele>
        <time>2018-12-01T09:09:56.847Z</time>
      </trkpt>
      <trkpt lat="43.48915" lon="1.54283">
        <ele>156.483</ele>
        <time>2018-12-01T09:10:05.527Z</time>
      </trkpt>
      <trkpt lat="43.48909" lon="1.54294">
        <ele>156.254</ele>
        <time>2018-12-01T09:10:14.452Z</time>
      </trkpt>
      <trkpt lat="43.48903" lon="1.54305">
        <ele>155.792</ele>
        <time>2018-12-01T09:10:22.047Z</time>
      </trkpt>
      <trkpt lat="43.48897" lon="1.54316">
        <ele>155.143</ele>
        <time>2018-12-01T09:10:29.476Z</time>
      </trkpt>
      <trkpt lat="43.48889" lon="1.54324">
        <ele>154.426</ele>
        <time>2018-12-01T09:10:36.145Z</time>
      </trkpt>
      <trkpt lat="43.48881" lon="1.54332">
        <ele>153.737</ele>
        <time>2018-12-01T09:10:43.379Z</time>
      </trkpt>
      <trkpt lat="43.48873" lon="1.54341">
        <ele>153.143</ele>
        <time>2018-12-01T09:10:50.509Z</time>
      </trkpt>
      <trkpt lat="43.48868" lon="1.54353">
        <ele>152.665</ele>
        <time>2018-12-01T09:10:56.829Z</time>
      </trkpt>
      <trkpt lat="43.48862" lon="1.54364">
        <ele>152.321</ele>
        <time>2018-12-01T09:11:03.117Z</time>
      </trkpt>
      <trkpt lat="43.48855" lon="1.54375">
        <ele>152.087</ele>
        <time>2018-12-01T09:11:10.286Z</time>
      </trkpt>
      <trkpt lat="43.48849" lon="1.54384">
        <ele>151.913</ele>
        <time>2018-12-01T09:11:17.777Z</time>
      </trkpt>
      <trkpt lat="43.48842" lon="1.54393">
        <ele>151.802</ele>
        <time>2018-12-01T09:11:26.239Z</time>
      </trkpt>
      <trkpt lat="43.48833" lon="1.544">
        <ele>151.767</ele>
        <time>2018-12-01T09:11:33.839Z</time>
      </trkpt>
      <trkpt lat="43.48825" lon="1.54409">
        <ele>151.792</ele>
        <time>2018-12-01T09:11:41.800Z</time>
      </trkpt>
      <trkpt lat="43.4882" lon="1.5442">
        <ele>151.853</ele>
        <time>2018-12-01T09:11:50.186Z</time>
      </trkpt>
      <trkpt lat="43.48815" lon="1.54431">
        <ele>151.908</ele>
        <time>2018-12-01T09:11:58.073Z</time>
      </trkpt>
      <trkpt lat="43.48807" lon="1.54438">
        <ele>151.907</ele>
        <time>2018-12-01T09:12:04.975Z</time>
      </trkpt>
      <trkpt lat="43.488" lon="1.54448">
        <ele>151.842</ele>
        <time>2018-12-01T09:12:10.992Z</time>
      </trkpt>
      <trkpt lat="43.48794" lon="1.54458">
        <ele>151.776</ele>
        <time>2018-12-01T09:12:17.490Z</time>
      </trkpt>
      <trkpt lat="43.48787" lon="1.54468">
        <ele>151.774</ele>
        <time>2018-12-01T09:12:24.900Z</time>
      </trkpt>
      <trkpt lat="43.4878" lon="1.54477">
        <ele>151.822</ele>
        <time>2018-12-01T09:12:31.973Z</time>
      </trkpt>
      <trkpt lat="43.48774" lon="1.54487">
        <ele>151.872</ele>
        <time>2018-12-01T09:12:39.090Z</time>
      </trkpt>
      <trkpt lat="43.48768" lon="1.54497">
        <ele>151.888</ele>
        <time>2018-12-01T09:12:45.385Z</time>
      </trkpt>
      <trkpt lat="43.48762" lon="1.54507">
        <ele>151.848</ele>
        <time>2018-12-01T09:12:52.368Z</time>
      </trkpt>
      <trkpt lat="43.48755" lon="1.54515">
        <ele>151.715</ele>
        <time>2018-12-01T09:12:59.892Z</time>
      </trkpt>
      <trkpt lat="43.48749" lon="1.54525">
        <ele>151.493</ele>
        <time>2018-12-01T09:13:07.629Z</time>
      </trkpt>
      <trkpt lat="43.48743" lon="1.54535">
        <ele>151.26</ele>
        <time>2018-12-01T09:13:15.303Z</time>
      </trkpt>
      <trkpt lat="43.48736" lon="1.54544">
        <ele>151.044</ele>
        <time>2018-12-01T09:13:22.809Z</time>
      </trkpt>
      <trkpt lat="43.48729" lon="1.54554">
        <ele>150.767</ele>
        <time>2018-12-01T09:13:30.326Z</time>
      </trkpt>
      <trkpt lat="43.48722" lon="1.54564">
        <ele>150.442</ele>
        <time>2018-12-01T09:13:36.973Z</time>
      </trkpt>
      <trkpt lat="43.48713" lon="1.54568">
        <ele>150.216</ele>
        <time>2018-12-01T09:13:43.641Z</time>
      </trkpt>
      <trkpt lat="43.48706" lon="1.54578">
        <ele>150.146</ele>
        <time>2018-12-01T09:13:51.483Z</time>
      </trkpt>
      <trkpt lat="43.48697" lon="1.54584">
        <ele>150.164</ele>
        <time>2018-12-01T09:13:59.234Z</time>
      </trkpt>
      <trkpt lat="43.4869" lon="1.54592">
        <ele>150.216</ele>
        <time>2018-12-01T09:14:06.293Z</time>
      </trkpt>
      <trkpt lat="43.48681" lon="1.54598">
        <ele>150.34</ele>
        <time>2018-12-01T09:14:13.721Z</time>
      </trkpt>
      <trkpt lat="43.48673" lon="1.54604">
        <ele>150.546</ele>
        <time>2018-12-01T09:14:20.999Z</time>
      </trkpt>
      <trkpt lat="43.48664" lon="1.54609">
        <ele>150.761</ele>
        <time>2018-12-01T09:14:29.047Z</time>
      </trkpt>
      <trkpt lat="43.48655" lon="1.54615">
        <ele>150.995</ele>
        <time>2018-12-01T09:14:37.705Z</time>
      </trkpt>
      <trkpt lat="43.48646" lon="1.54618">
        <ele>151.301</ele>
        <time>2018-12-01T09:14:45.127Z</time>
      </trkpt>
      <trkpt lat="43.48637" lon="1.54623">
        <ele>151.649</ele>
        <time>2018-12-01T09:14:52.754Z</time>
      </trkpt>
      <trkpt lat="43.48628" lon="1.54627">
        <ele>151.977</ele>
        <time>2018-12-01T09:14:59.452Z</time>
      </trkpt>
      <trkpt lat="43.48619" lon="1.5463">
        <ele>152.228</ele>
        <time>2018-12-01T09:15:06.943Z</time>
      </trkpt>
      <trkpt lat="43.48608" lon="1.54631">
        <ele>152.382</ele>
        <time>2018-12-01T09:15:14.908Z</time>
      </trkpt>
      <trkpt lat="43.48599" lon="1.54633">
        <ele>152.471</ele>
        <time>2018-12-01T09:15:22.502Z</time>
      </trkpt>
      <trkpt lat="43.48589" lon="1.54636">
        <ele>152.531</ele>
        <time>2018-12-01T09:15:30.820Z</time>
      </trkpt>
      <trkpt lat="43.4858" lon="1.54636">
        <ele>152.559</ele>
        <time>2018-12-01T09:15:38.104Z</time>
      </trkpt>
      <trkpt lat="43.48571" lon="1.54637">
        <ele>152.552</ele>
        <time>2018-12-01T09:15:44.198Z</time>
      </trkpt>
      <trkpt lat="43.48561" lon="1.54638">
        <ele>152.52</ele>
        <time>2018-12-01T09:15:50.315Z</time>
      </trkpt>
      <trkpt lat="43.48552" lon="1.5464">
        <ele>152.48</ele>
        <time>2018-12-01T09:15:56.659Z</time>
      </trkpt>
      <trkpt lat="43.48543" lon="1.5464">
        <ele>152.481</ele>
        <time>2018-12-01T09:16:03.388Z</time>
      </trkpt>
      <trkpt lat="43.48533" lon="1.54641">
        <ele>152.573</ele>
        <time>2018-12-01T09:16:11.208Z</time>
      </trkpt>
      <trkpt lat="43.48524" lon="1.54642">
        <ele>152.755</ele>
        <time>2018-12-01T09:16:18.572Z</time>
      </trkpt>
      <trkpt lat="43.48515" lon="1.54645">
        <ele>152.965</ele>
        <time>2018-12-01T09:16:25.548Z</time>
      </trkpt>
      <trkpt lat="43.48505" lon="1.54648">
        <ele>153.12</ele>
        <time>2018-12-01T09:16:32.837Z</time>
      </trkpt>
      <trkpt lat="43.48496" lon="1.5465">
        <ele>153.175</ele>
        <time>2018-12-01T09:16:40.119Z</time>
      </trkpt>
      <trkpt lat="43.48487" lon="1.54657">
        <ele>153.117</ele>
        <time>2018-12-01T09:16:48.291Z</time>
      </trkpt>
      <trkpt lat="43.48479" lon="1.5466">
        <ele>152.948</ele>
        <time>2018-12-01T09:16:56.418Z</time>
      </trkpt>
      <trkpt lat="43.4847" lon="1.54665">
        <ele>152.752</ele>
        <time>2018-12-01T09:17:05.675Z</time>
      </trkpt>
      <trkpt lat="43.48461" lon="1.54669">
        <ele>152.641</ele>
        <time>2018-12-01T09:17:14.016Z</time>
      </trkpt>
      <trkpt lat="43.48451" lon="1.54672">
        <ele>152.638</ele>
        <time>2018-12-01T09:17:20.830Z</time>
      </trkpt>
      <trkpt lat="43.48442" lon="1.54677">
        <ele>152.687</ele>
        <time>2018-12-01T09:17:27.512Z</time>
      </trkpt>
      <trkpt lat="43.48433" lon="1.54678">
        <ele>152.698</ele>
        <time>2018-12-01T09:17:33.812Z</time>
      </trkpt>
      <trkpt lat="43.48423" lon="1.5468">
        <ele>152.628</ele>
        <time>2018-12-01T09:17:41.428Z</time>
      </trkpt>
      <trkpt lat="43.48414" lon="1.54685">
        <ele>152.506</ele>
        <time>2018-12-01T09:17:49.687Z</time>
      </trkpt>
      <trkpt lat="43.48405" lon="1.54683">
        <ele>152.389</ele>
        <time>2018-12-01T09:17:56.656Z</time>
      </trkpt>
      <trkpt lat="43.48396" lon="1.54684">
        <ele>152.356</ele>
        <time>2018-12-01T09:18:03.782Z</time>
      </trkpt>
      <trkpt lat="43.48387" lon="1.54681">
        <ele>152.458</ele>
        <time>2018-12-01T09:18:11.178Z</time>
      </trkpt>
      <trkpt lat="43.48378" lon="1.54682">
        <ele>152.659</ele>
        <time>2018-12-01T09:18:20.930Z</time>
      </trkpt>
      <trkpt lat="43.48368" lon="1.54678">
        <ele>152.924</ele>
        <time>2018-12-01T09:18:28.806Z</time>
      </trkpt>
      <trkpt lat="43.48357" lon="1.54675">
        <ele>153.194</ele>
        <time>2018-12-01T09:18:35.590Z</time>
      </trkpt>
      <trkpt lat="43.48348" lon="1.54672">
        <ele>153.36</ele>
        <time>2018-12-01T09:18:41.125Z</time>
      </trkpt>
      <trkpt lat="43.48338" lon="1.54667">
        <ele>153.382</ele>
        <time>2018-12-01T09:18:47.640Z</time>
      </trkpt>
      <trkpt lat="43.48329" lon="1.54667">
        <ele>153.311</ele>
        <time>2018-12-01T09:18:54.121Z</time>
      </trkpt>
      <trkpt lat="43.48319" lon="1.54665">
        <ele>153.219</ele>
        <time>2018-12-01T09:19:01.889Z</time>
      </trkpt>
      <trkpt lat="43.4831" lon="1.54669">
        <ele>153.198</ele>
        <time>2018-12-01T09:19:10.347Z</time>
      </trkpt>
      <trkpt lat="43.483" lon="1.5467">
        <ele>153.313</ele>
        <time>2018-12-01T09:19:18.151Z</time>
      </trkpt>
      <trkpt lat="43.48291" lon="1.54674">
        <ele>153.534</ele>
        <time>2018-12-01T09:19:25.164Z</time>
      </trkpt>
      <trkpt lat="43.48282" lon="1.54677">
        <ele>153.766</ele>
        <time>2018-12-01T09:19:32.682Z</time>
      </trkpt>
      <trkpt lat="43.48274" lon="1.54685">
        <ele>153.958</ele>
        <time>2018-12-01T09:19:40.964Z</time>
      </trkpt>
      <trkpt lat="43.48268" lon="1.54694">
        <ele>154.14</ele>
        <time>2018-12-01T09:19:49.073Z</time>
      </trkpt>
      <trkpt lat="43.48261" lon="1.54703">
        <ele>154.327</ele>
        <time>2018-12-01T09:19:55.938Z</time>
      </trkpt>
      <trkpt lat="43.48252" lon="1.54708">
        <ele>154.449</ele>
        <time>2018-12-01T09:20:02.543Z</time>
      </trkpt>
      <trkpt lat="43.48248" lon="1.5472">
        <ele>154.412</ele>
        <time>2018-12-01T09:20:09.614Z</time>
      </trkpt>
      <trkpt lat="43.48239" lon="1.54724">
        <ele>154.198</ele>
        <time>2018-12-01T09:20:17.220Z</time>
      </trkpt>
      <trkpt lat="43.48232" lon="1.54733">
        <ele>153.909</ele>
        <time>2018-12-01T09:20:26.136Z</time>
      </trkpt>
      <trkpt lat="43.48224" lon="1.54741">
        <ele>153.688</ele>
        <time>2018-12-01T09:20:33.974Z</time>
      </trkpt>
      <trkpt lat="43.48216" lon="1.5475">
        <ele>153.614</ele>
        <time>2018-12-01T09:20:41.451Z</time>
      </trkpt>
      <trkpt lat="43.48207" lon="1.54754">
        <ele>153.707</ele>
        <time>2018-12-01T09:20:47.553Z</time>
      </trkpt>
      <trkpt lat="43.48199" lon="1.54759">
        <ele>153.892</ele>
        <time>2018-12-01T09:20:54.136Z</time>
      </trkpt>
      <trkpt lat="43.4819" lon="1.54766">
        <ele>153.965</ele>
        <time>2018-12-01T09:21:02.166Z</time>
      </trkpt>
      <trkpt lat="43.48181" lon="1.54773">
        <ele>153.823</ele>
        <time>2018-12-01T09:21:09.664Z</time>
      </trkpt>
      <trkpt lat="43.48172" lon="1.54778">
        <ele>153.604</ele>
        <time>2018-12-01T09:21:17.108Z</time>
      </trkpt>
      <trkpt lat="43.48164" lon="1.54783">
        <ele>153.448</ele>
        <time>2018-12-01T09:21:24.428Z</time>
      </trkpt>
      <trkpt lat="43.48155" lon="1.54787">
        <ele>153.34</ele>
        <time>2018-12-01T09:21:31.961Z</time>
      </trkpt>
      <trkpt lat="43.48146" lon="1.54793">
        <ele>153.229</ele>
        <time>2018-12-01T09:21:40.048Z</time>
      </trkpt>
      <trkpt lat="43.48137" lon="1.54797">
        <ele>153.108</ele>
        <time>2018-12-01T09:21:47.619Z</time>
      </trkpt>
      <trkpt lat="43.48128" lon="1.548">
        <ele>152.951</ele>
        <time>2018-12-01T09:21:54.640Z</time>
      </trkpt>
      <trkpt lat="43.48119" lon="1.54805">
        <ele>152.652</ele>
        <time>2018-12-01T09:22:01.114Z</time>
      </trkpt>
      <trkpt lat="43.48111" lon="1.54813">
        <ele>152.227</ele>
        <time>2018-12-01T09:22:07.424Z</time>
      </trkpt>
      <trkpt lat="43.48101" lon="1.54816">
        <ele>151.793</ele>
        <time>2018-12-01T09:22:13.727Z</time>
      </trkpt>
      <trkpt lat="43.48093" lon="1.5482">
        <ele>151.326</ele>
        <time>2018-12-01T09:22:19.944Z</time>
      </trkpt>
      <trkpt lat="43.48085" lon="1.54827">
        <ele>150.795</ele>
        <time>2018-12-01T09:22:26.368Z</time>
      </trkpt>
      <trkpt lat="43.48079" lon="1.54837">
        <ele>150.297</ele>
        <time>2018-12-01T09:22:33.299Z</time>
      </trkpt>
      <trkpt lat="43.48076" lon="1.5485">
        <ele>149.924</ele>
        <time>2018-12-01T09:22:40.820Z</time>
      </trkpt>
      <trkpt lat="43.48073" lon="1.54862">
        <ele>149.751</ele>
        <time>2018-12-01T09:22:48.396Z</time>
      </trkpt>
      <trkpt lat="43.48071" lon="1.54875">
        <ele>149.791</ele>
        <time>2018-12-01T09:22:55.166Z</time>
      </trkpt>
      <trkpt lat="43.48069" lon="1.54888">
        <ele>149.995</ele>
        <time>2018-12-01T09:23:02.670Z</time>
      </trkpt>
      <trkpt lat="43.48068" lon="1.54901">
        <ele>150.377</ele>
        <time>2018-12-01T09:23:10.186Z</time>
      </trkpt>
      <trkpt lat="43.48065" lon="1.54912">
        <ele>150.933</ele>
        <time>2018-12-01T09:23:18.713Z</time>
      </trkpt>
      <trkpt lat="43.48064" lon="1.54925">
        <ele>151.586</ele>
        <time>2018-12-01T09:23:27.466Z</time>
      </trkpt>
      <trkpt lat="43.48063" lon="1.54938">
        <ele>152.231</ele>
        <time>2018-12-01T09:23:35.028Z</time>
      </trkpt>
      <trkpt lat="43.48061" lon="1.5495">
        <ele>152.737</ele>
        <time>2018-12-01T09:23:42.770Z</time>
      </trkpt>
      <trkpt lat="43.48056" lon="1.54961">
        <ele>153.046</ele>
        <time>2018-12-01T09:23:50.819Z</time>
      </trkpt>
      <trkpt lat="43.48052" lon="1.54973">
        <ele>153.287</ele>
        <time>2018-12-01T09:23:58.560Z</time>
      </trkpt>
      <trkpt lat="43.4805" lon="1.54987">
        <ele>153.602</ele>
        <time>2018-12-01T09:24:07.242Z</time>
      </trkpt>
      <trkpt lat="43.48046" lon="1.54998">
        <ele>154.02</ele>
        <time>2018-12-01T09:24:14.586Z</time>
      </trkpt>
      <trkpt lat="43.48041" lon="1.55011">
        <ele>154.465</ele>
        <time>2018-12-01T09:24:23.457Z</time>
      </trkpt>
      <trkpt lat="43.48034" lon="1.55019">
        <ele>154.825</ele>
        <time>2018-12-01T09:24:30.765Z</time>
      </trkpt>
      <trkpt lat="43.48027" lon="1.55029">
        <ele>155.043</ele>
        <time>2018-12-01T09:24:38.670Z</time>
      </trkpt>
      <trkpt lat="43.48019" lon="1.55038">
        <ele>155.139</ele>
        <time>2018-12-01T09:24:48.506Z</time>
      </trkpt>
      <trkpt lat="43.48011" lon="1.55046">
        <ele>155.103</ele>
        <time>2018-12-01T09:24:57.267Z</time>
      </trkpt>
      <trkpt lat="43.48002" lon="1.55054">
        <ele>154.941</ele>
        <time>2018-12-01T09:25:05.106Z</time>
      </trkpt>
      <trkpt lat="43.47994" lon="1.5506">
        <ele>154.8</ele>
        <time>2018-12-01T09:25:12.083Z</time>
      </trkpt>
      <trkpt lat="43.47985" lon="1.55067">
        <ele>154.81</ele>
        <time>2018-12-01T09:25:19.738Z</time>
      </trkpt>
      <trkpt lat="43.47977" lon="1.55074">
        <ele>154.918</ele>
        <time>2018-12-01T09:25:27.389Z</time>
      </trkpt>
      <trkpt lat="43.47968" lon="1.55079">
        <ele>154.958</ele>
        <time>2018-12-01T09:25:34.700Z</time>
      </trkpt>
      <trkpt lat="43.47959" lon="1.55085">
        <ele>154.822</ele>
        <time>2018-12-01T09:25:42.279Z</time>
      </trkpt>
      <trkpt lat="43.47951" lon="1.55091">
        <ele>154.593</ele>
        <time>2018-12-01T09:25:49.737Z</time>
      </trkpt>
      <trkpt lat="43.47942" lon="1.55097">
        <ele>154.442</ele>
        <time>2018-12-01T09:25:58.209Z</time>
      </trkpt>
      <trkpt lat="43.47934" lon="1.55104">
        <ele>154.463</ele>
        <time>2018-12-01T09:26:07.060Z</time>
      </trkpt>
      <trkpt lat="43.47925" lon="1.55107">
        <ele>154.63</ele>
        <time>2018-12-01T09:26:13.617Z</time>
      </trkpt>
      <trkpt lat="43.47916" lon="1.55112">
        <ele>154.821</ele>
        <time>2018-12-01T09:26:19.992Z</time>
      </trkpt>
      <trkpt lat="43.47908" lon="1.55118">
        <ele>154.933</ele>
        <time>2018-12-01T09:26:26.872Z</time>
      </trkpt>
      <trkpt lat="43.479" lon="1.55124">
        <ele>154.967</ele>
        <time>2018-12-01T09:26:34.277Z</time>
      </trkpt>
      <trkpt lat="43.47892" lon="1.55131">
        <ele>154.991</ele>
        <time>2018-12-01T09:26:42.384Z</time>
      </trkpt>
      <trkpt lat="43.47884" lon="1.55137">
        <ele>155.073</ele>
        <time>2018-12-01T09:26:50.308Z</time>
      </trkpt>
      <trkpt lat="43.47875" lon="1.55144">
        <ele>155.205</ele>
        <time>2018-12-01T09:26:59.033Z</time>
      </trkpt>
      <trkpt lat="43.47867" lon="1.5515">
        <ele>155.38</ele>
        <time>2018-12-01T09:27:07.153Z</time>
      </trkpt>
      <trkpt lat="43.4786" lon="1.55159">
        <ele>155.591</ele>
        <time>2018-12-01T09:27:14.601Z</time>
      </trkpt>
      <trkpt lat="43.47852" lon="1.55166">
        <ele>155.72</ele>
        <time>2018-12-01T09:27:21.728Z</time>
      </trkpt>
      <trkpt lat="43.47845" lon="1.55174">
        <ele>155.644</ele>
        <time>2018-12-01T09:27:31.163Z</time>
      </trkpt>
      <trkpt lat="43.47838" lon="1.55184">
        <ele>155.428</ele>
        <time>2018-12-01T09:27:42.458Z</time>
      </trkpt>
      <trkpt lat="43.47831" lon="1.55193">
        <ele>155.24</ele>
        <time>2018-12-01T09:27:51.550Z</time>
      </trkpt>
      <trkpt lat="43.47823" lon="1.55202">
        <ele>155.156</ele>
        <time>2018-12-01T09:27:59.162Z</time>
      </trkpt>
      <trkpt lat="43.47818" lon="1.55214">
        <ele>155.094</ele>
        <time>2018-12-01T09:28:06.717Z</time>
      </trkpt>
      <trkpt lat="43.47811" lon="1.55222">
        <ele>154.85</ele>
        <time>2018-12-01T09:28:14.272Z</time>
      </trkpt>
      <trkpt lat="43.47802" lon="1.55232">
        <ele>154.334</ele>
        <time>2018-12-01T09:28:24.873Z</time>
      </trkpt>
      <trkpt lat="43.47796" lon="1.55242">
        <ele>153.761</ele>
        <time>2018-12-01T09:28:34.315Z</time>
      </trkpt>
      <trkpt lat="43.47788" lon="1.55251">
        <ele>153.388</ele>
        <time>2018-12-01T09:28:42.662Z</time>
      </trkpt>
      <trkpt lat="43.47779" lon="1.55256">
        <ele>153.314</ele>
        <time>2018-12-01T09:28:48.660Z</time>
      </trkpt>
      <trkpt lat="43.47771" lon="1.55262">
        <ele>153.554</ele>
        <time>2018-12-01T09:28:55.090Z</time>
      </trkpt>
      <trkpt lat="43.47763" lon="1.5527">
        <ele>154.071</ele>
        <time>2018-12-01T09:29:02.065Z</time>
      </trkpt>
      <trkpt lat="43.47763" lon="1.5527">
        <ele>154.683</ele>
        <time>2018-12-01T09:29:09.033Z</time>
      </trkpt>
      <trkpt lat="43.47763" lon="1.5527">
        <ele>155.023</ele>
        <time>2018-12-01T09:29:09.133Z</time>
      </trkpt>
      <trkpt lat="43.47755" lon="1.55281">
        <ele>154.935</ele>
        <time>2018-12-01T09:29:24.006Z</time>
      </trkpt>
      <trkpt lat="43.47749" lon="1.5529">
        <ele>154.681</ele>
        <time>2018-12-01T09:29:31.928Z</time>
      </trkpt>
      <trkpt lat="43.47742" lon="1.55299">
        <ele>154.509</ele>
        <time>2018-12-01T09:29:39.072Z</time>
      </trkpt>
      <trkpt lat="43.47742" lon="1.55299">
        <ele>154.424</ele>
        <time>2018-12-01T09:29:41.043Z</time>
      </trkpt>
      <trkpt lat="43.47742" lon="1.55299">
        <ele>154.357</ele>
        <time>2018-12-01T09:32:30.446Z</time>
      </trkpt>
      <trkpt lat="43.4775" lon="1.55291">
        <ele>154.248</ele>
        <time>2018-12-01T09:32:44.013Z</time>
      </trkpt>
      <trkpt lat="43.47757" lon="1.55282">
        <ele>154.054</ele>
        <time>2018-12-01T09:32:52.043Z</time>
      </trkpt>
      <trkpt lat="43.47757" lon="1.55282">
        <ele>153.585</ele>
        <time>2018-12-01T09:32:57.043Z</time>
      </trkpt>
      <trkpt lat="43.47757" lon="1.55282">
        <ele>153.172</ele>
        <time>2018-12-01T09:32:58.378Z</time>
      </trkpt>
      <trkpt lat="43.47755" lon="1.55267">
        <ele>153.255</ele>
        <time>2018-12-01T09:33:14.071Z</time>
      </trkpt>
      <trkpt lat="43.47749" lon="1.55258">
        <ele>153.514</ele>
        <time>2018-12-01T09:33:22.419Z</time>
      </trkpt>
      <trkpt lat="43.47741" lon="1.55251">
        <ele>153.922</ele>
        <time>2018-12-01T09:33:31.056Z</time>
      </trkpt>
      <trkpt lat="43.47741" lon="1.55251">
        <ele>154.202</ele>
        <time>2018-12-01T09:33:38.057Z</time>
      </trkpt>
      <trkpt lat="43.47741" lon="1.55251">
        <ele>154.129</ele>
        <time>2018-12-01T09:33:38.867Z</time>
      </trkpt>
      <trkpt lat="43.47733" lon="1.55256">
        <ele>153.894</ele>
        <time>2018-12-01T09:33:56.294Z</time>
      </trkpt>
      <trkpt lat="43.47725" lon="1.55264">
        <ele>153.95</ele>
        <time>2018-12-01T09:34:07.073Z</time>
      </trkpt>
      <trkpt lat="43.47718" lon="1.55271">
        <ele>154.015</ele>
        <time>2018-12-01T09:34:15.763Z</time>
      </trkpt>
      <trkpt lat="43.4771" lon="1.5528">
        <ele>154.092</ele>
        <time>2018-12-01T09:34:24.272Z</time>
      </trkpt>
      <trkpt lat="43.47703" lon="1.5529">
        <ele>154.191</ele>
        <time>2018-12-01T09:34:33.322Z</time>
      </trkpt>
      <trkpt lat="43.47695" lon="1.55298">
        <ele>154.249</ele>
        <time>2018-12-01T09:34:41.625Z</time>
      </trkpt>
      <trkpt lat="43.47688" lon="1.55307">
        <ele>154.176</ele>
        <time>2018-12-01T09:34:49.552Z</time>
      </trkpt>
      <trkpt lat="43.4768" lon="1.55315">
        <ele>153.946</ele>
        <time>2018-12-01T09:34:56.542Z</time>
      </trkpt>
      <trkpt lat="43.47673" lon="1.55324">
        <ele>153.647</ele>
        <time>2018-12-01T09:35:03.941Z</time>
      </trkpt>
      <trkpt lat="43.47665" lon="1.55332">
        <ele>153.383</ele>
        <time>2018-12-01T09:35:12.176Z</time>
      </trkpt>
      <trkpt lat="43.47657" lon="1.5534">
        <ele>153.187</ele>
        <time>2018-12-01T09:35:20.028Z</time>
      </trkpt>
      <trkpt lat="43.47648" lon="1.55344">
        <ele>153.022</ele>
        <time>2018-12-01T09:35:27.784Z</time>
      </trkpt>
      <trkpt lat="43.47641" lon="1.55352">
        <ele>152.858</ele>
        <time>2018-12-01T09:35:36.677Z</time>
      </trkpt>
      <trkpt lat="43.47632" lon="1.55358">
        <ele>152.724</ele>
        <time>2018-12-01T09:35:45.778Z</time>
      </trkpt>
      <trkpt lat="43.47624" lon="1.55364">
        <ele>152.726</ele>
        <time>2018-12-01T09:35:55.773Z</time>
      </trkpt>
      <trkpt lat="43.47616" lon="1.5537">
        <ele>152.91</ele>
        <time>2018-12-01T09:36:05.921Z</time>
      </trkpt>
      <trkpt lat="43.47608" lon="1.55378">
        <ele>153.223</ele>
        <time>2018-12-01T09:36:14.342Z</time>
      </trkpt>
      <trkpt lat="43.47599" lon="1.55382">
        <ele>153.565</ele>
        <time>2018-12-01T09:36:21.504Z</time>
      </trkpt>
      <trkpt lat="43.47591" lon="1.55389">
        <ele>153.891</ele>
        <time>2018-12-01T09:36:29.563Z</time>
      </trkpt>
      <trkpt lat="43.47584" lon="1.55397">
        <ele>154.197</ele>
        <time>2018-12-01T09:36:38.395Z</time>
      </trkpt>
      <trkpt lat="43.47576" lon="1.55403">
        <ele>154.44</ele>
        <time>2018-12-01T09:36:46.642Z</time>
      </trkpt>
      <trkpt lat="43.47569" lon="1.55411">
        <ele>154.559</ele>
        <time>2018-12-01T09:36:55.554Z</time>
      </trkpt>
      <trkpt lat="43.47562" lon="1.5542">
        <ele>154.562</ele>
        <time>2018-12-01T09:37:05.140Z</time>
      </trkpt>
      <trkpt lat="43.47555" lon="1.55428">
        <ele>154.501</ele>
        <time>2018-12-01T09:37:14.953Z</time>
      </trkpt>
      <trkpt lat="43.47546" lon="1.55434">
        <ele>154.435</ele>
        <time>2018-12-01T09:37:24.501Z</time>
      </trkpt>
      <trkpt lat="43.47538" lon="1.55441">
        <ele>154.309</ele>
        <time>2018-12-01T09:37:33.561Z</time>
      </trkpt>
      <trkpt lat="43.47529" lon="1.55447">
        <ele>154.067</ele>
        <time>2018-12-01T09:37:41.880Z</time>
      </trkpt>
      <trkpt lat="43.47521" lon="1.55455">
        <ele>153.799</ele>
        <time>2018-12-01T09:37:49.587Z</time>
      </trkpt>
      <trkpt lat="43.47514" lon="1.55464">
        <ele>153.603</ele>
        <time>2018-12-01T09:37:57.599Z</time>
      </trkpt>
      <trkpt lat="43.47506" lon="1.55471">
        <ele>153.468</ele>
        <time>2018-12-01T09:38:05.409Z</time>
      </trkpt>
      <trkpt lat="43.475" lon="1.5548">
        <ele>153.368</ele>
        <time>2018-12-01T09:38:12.507Z</time>
      </trkpt>
      <trkpt lat="43.47492" lon="1.55487">
        <ele>153.29</ele>
        <time>2018-12-01T09:38:18.975Z</time>
      </trkpt>
      <trkpt lat="43.47483" lon="1.55494">
        <ele>153.247</ele>
        <time>2018-12-01T09:38:25.021Z</time>
      </trkpt>
      <trkpt lat="43.47475" lon="1.55503">
        <ele>153.239</ele>
        <time>2018-12-01T09:38:31.040Z</time>
      </trkpt>
      <trkpt lat="43.47467" lon="1.5551">
        <ele>153.237</ele>
        <time>2018-12-01T09:38:36.794Z</time>
      </trkpt>
      <trkpt lat="43.47459" lon="1.55519">
        <ele>153.224</ele>
        <time>2018-12-01T09:38:43.674Z</time>
      </trkpt>
      <trkpt lat="43.47452" lon="1.55529">
        <ele>153.208</ele>
        <time>2018-12-01T09:38:51.493Z</time>
      </trkpt>
      <trkpt lat="43.47444" lon="1.55538">
        <ele>153.229</ele>
        <time>2018-12-01T09:39:00.478Z</time>
      </trkpt>
      <trkpt lat="43.47437" lon="1.55547">
        <ele>153.374</ele>
        <time>2018-12-01T09:39:10.915Z</time>
      </trkpt>
      <trkpt lat="43.47429" lon="1.55555">
        <ele>153.625</ele>
        <time>2018-12-01T09:39:22.658Z</time>
      </trkpt>
      <trkpt lat="43.47421" lon="1.55563">
        <ele>153.83</ele>
        <time>2018-12-01T09:39:31.641Z</time>
      </trkpt>
      <trkpt lat="43.47413" lon="1.5557">
        <ele>153.899</ele>
        <time>2018-12-01T09:39:40.923Z</time>
      </trkpt>
      <trkpt lat="43.47403" lon="1.55573">
        <ele>153.869</ele>
        <time>2018-12-01T09:39:51.224Z</time>
      </trkpt>
      <trkpt lat="43.47395" lon="1.55566">
        <ele>153.8</ele>
        <time>2018-12-01T09:40:02.657Z</time>
      </trkpt>
      <trkpt lat="43.47388" lon="1.55557">
        <ele>153.667</ele>
        <time>2018-12-01T09:40:12.631Z</time>
      </trkpt>
      <trkpt lat="43.47381" lon="1.55548">
        <ele>153.45</ele>
        <time>2018-12-01T09:40:22.763Z</time>
      </trkpt>
      <trkpt lat="43.47374" lon="1.55538">
        <ele>153.31</ele>
        <time>2018-12-01T09:40:31.146Z</time>
      </trkpt>
      <trkpt lat="43.47366" lon="1.55529">
        <ele>153.431</ele>
        <time>2018-12-01T09:40:39.187Z</time>
      </trkpt>
      <trkpt lat="43.47358" lon="1.5552">
        <ele>153.757</ele>
        <time>2018-12-01T09:40:47.447Z</time>
      </trkpt>
      <trkpt lat="43.47351" lon="1.55511">
        <ele>154.079</ele>
        <time>2018-12-01T09:40:55.971Z</time>
      </trkpt>
      <trkpt lat="43.47349" lon="1.55499">
        <ele>154.225</ele>
        <time>2018-12-01T09:41:05.152Z</time>
      </trkpt>
      <trkpt lat="43.47344" lon="1.55489">
        <ele>154.185</ele>
        <time>2018-12-01T09:41:14.541Z</time>
      </trkpt>
      <trkpt lat="43.47336" lon="1.55479">
        <ele>154.069</ele>
        <time>2018-12-01T09:41:24.527Z</time>
      </trkpt>
      <trkpt lat="43.47329" lon="1.55471">
        <ele>153.97</ele>
        <time>2018-12-01T09:41:33.985Z</time>
      </trkpt>
      <trkpt lat="43.47321" lon="1.55466">
        <ele>153.857</ele>
        <time>2018-12-01T09:41:43.311Z</time>
      </trkpt>
      <trkpt lat="43.47314" lon="1.55458">
        <ele>153.689</ele>
        <time>2018-12-01T09:41:51.552Z</time>
      </trkpt>
      <trkpt lat="43.47306" lon="1.5545">
        <ele>153.522</ele>
        <time>2018-12-01T09:42:00.321Z</time>
      </trkpt>
      <trkpt lat="43.47299" lon="1.55441">
        <ele>153.409</ele>
        <time>2018-12-01T09:42:09.388Z</time>
      </trkpt>
      <trkpt lat="43.47291" lon="1.55433">
        <ele>153.34</ele>
        <time>2018-12-01T09:42:18.129Z</time>
      </trkpt>
      <trkpt lat="43.47285" lon="1.55422">
        <ele>153.307</ele>
        <time>2018-12-01T09:42:26.090Z</time>
      </trkpt>
      <trkpt lat="43.47278" lon="1.55415">
        <ele>153.297</ele>
        <time>2018-12-01T09:42:33.272Z</time>
      </trkpt>
      <trkpt lat="43.47271" lon="1.55406">
        <ele>153.3</ele>
        <time>2018-12-01T09:42:40.269Z</time>
      </trkpt>
      <trkpt lat="43.47264" lon="1.55398">
        <ele>153.311</ele>
        <time>2018-12-01T09:42:47.405Z</time>
      </trkpt>
      <trkpt lat="43.47257" lon="1.5539">
        <ele>153.324</ele>
        <time>2018-12-01T09:42:54.611Z</time>
      </trkpt>
      <trkpt lat="43.47249" lon="1.55385">
        <ele>153.334</ele>
        <time>2018-12-01T09:43:02.098Z</time>
      </trkpt>
      <trkpt lat="43.47243" lon="1.55375">
        <ele>153.342</ele>
        <time>2018-12-01T09:43:09.798Z</time>
      </trkpt>
      <trkpt lat="43.47236" lon="1.55365">
        <ele>153.381</ele>
        <time>2018-12-01T09:43:18.137Z</time>
      </trkpt>
      <trkpt lat="43.47228" lon="1.55356">
        <ele>153.522</ele>
        <time>2018-12-01T09:43:26.289Z</time>
      </trkpt>
      <trkpt lat="43.4722" lon="1.55348">
        <ele>153.794</ele>
        <time>2018-12-01T09:43:34.928Z</time>
      </trkpt>
      <trkpt lat="43.47213" lon="1.55339">
        <ele>154.083</ele>
        <time>2018-12-01T09:43:43.423Z</time>
      </trkpt>
      <trkpt lat="43.47208" lon="1.55327">
        <ele>154.256</ele>
        <time>2018-12-01T09:43:53.021Z</time>
      </trkpt>
      <trkpt lat="43.47202" lon="1.55318">
        <ele>154.341</ele>
        <time>2018-12-01T09:44:02.140Z</time>
      </trkpt>
      <trkpt lat="43.47203" lon="1.55306">
        <ele>154.427</ele>
        <time>2018-12-01T09:44:12.311Z</time>
      </trkpt>
      <trkpt lat="43.47209" lon="1.55294">
        <ele>154.56</ele>
        <time>2018-12-01T09:44:23.481Z</time>
      </trkpt>
      <trkpt lat="43.47208" lon="1.55281">
        <ele>154.747</ele>
        <time>2018-12-01T09:44:34.282Z</time>
      </trkpt>
      <trkpt lat="43.47213" lon="1.55269">
        <ele>155.004</ele>
        <time>2018-12-01T09:44:45.130Z</time>
      </trkpt>
      <trkpt lat="43.47215" lon="1.55257">
        <ele>155.302</ele>
        <time>2018-12-01T09:44:54.872Z</time>
      </trkpt>
      <trkpt lat="43.47223" lon="1.55248">
        <ele>155.535</ele>
        <time>2018-12-01T09:45:06.188Z</time>
      </trkpt>
      <trkpt lat="43.47232" lon="1.55237">
        <ele>155.649</ele>
        <time>2018-12-01T09:45:17.748Z</time>
      </trkpt>
      <trkpt lat="43.47241" lon="1.55231">
        <ele>155.703</ele>
        <time>2018-12-01T09:45:24.393Z</time>
      </trkpt>
      <trkpt lat="43.47246" lon="1.5522">
        <ele>155.744</ele>
        <time>2018-12-01T09:45:31.211Z</time>
      </trkpt>
      <trkpt lat="43.47246" lon="1.55207">
        <ele>155.822</ele>
        <time>2018-12-01T09:45:38.999Z</time>
      </trkpt>
      <trkpt lat="43.47249" lon="1.55195">
        <ele>155.959</ele>
        <time>2018-12-01T09:45:45.381Z</time>
      </trkpt>
      <trkpt lat="43.47253" lon="1.55183">
        <ele>156.098</ele>
        <time>2018-12-01T09:45:50.947Z</time>
      </trkpt>
      <trkpt lat="43.47259" lon="1.55173">
        <ele>156.236</ele>
        <time>2018-12-01T09:45:57.122Z</time>
      </trkpt>
      <trkpt lat="43.47266" lon="1.55164">
        <ele>156.461</ele>
        <time>2018-12-01T09:46:04.222Z</time>
      </trkpt>
      <trkpt lat="43.47271" lon="1.55153">
        <ele>156.841</ele>
        <time>2018-12-01T09:46:11.807Z</time>
      </trkpt>
      <trkpt lat="43.47271" lon="1.5514">
        <ele>157.394</ele>
        <time>2018-12-01T09:46:19.694Z</time>
      </trkpt>
      <trkpt lat="43.47266" lon="1.55129">
        <ele>158.077</ele>
        <time>2018-12-01T09:46:27.312Z</time>
      </trkpt>
      <trkpt lat="43.47259" lon="1.55118">
        <ele>158.7</ele>
        <time>2018-12-01T09:46:34.819Z</time>
      </trkpt>
      <trkpt lat="43.47255" lon="1.55107">
        <ele>158.981</ele>
        <time>2018-12-01T09:46:42.516Z</time>
      </trkpt>
      <trkpt lat="43.4725" lon="1.55095">
        <ele>158.824</ele>
        <time>2018-12-01T09:46:50.705Z</time>
      </trkpt>
      <trkpt lat="43.47246" lon="1.55083">
        <ele>158.458</ele>
        <time>2018-12-01T09:46:58.781Z</time>
      </trkpt>
      <trkpt lat="43.47241" lon="1.55071">
        <ele>158.166</ele>
        <time>2018-12-01T09:47:07.115Z</time>
      </trkpt>
      <trkpt lat="43.47237" lon="1.55058">
        <ele>158.054</ele>
        <time>2018-12-01T09:47:15.605Z</time>
      </trkpt>
      <trkpt lat="43.47239" lon="1.55045">
        <ele>158.078</ele>
        <time>2018-12-01T09:47:23.636Z</time>
      </trkpt>
      <trkpt lat="43.47243" lon="1.55033">
        <ele>158.153</ele>
        <time>2018-12-01T09:47:30.994Z</time>
      </trkpt>
      <trkpt lat="43.47243" lon="1.55033">
        <ele>158.218</ele>
        <time>2018-12-01T09:47:34.994Z</time>
      </trkpt>
      <trkpt lat="43.47243" lon="1.55033">
        <ele>158.224</ele>
        <time>2018-12-01T09:47:45.895Z</time>
      </trkpt>
      <trkpt lat="43.47241" lon="1.55019">
        <ele>158.155</ele>
        <time>2018-12-01T09:48:01.886Z</time>
      </trkpt>
      <trkpt lat="43.4724" lon="1.55006">
        <ele>158.305</ele>
        <time>2018-12-01T09:48:14.245Z</time>
      </trkpt>
      <trkpt lat="43.4724" lon="1.54993">
        <ele>159.352</ele>
        <time>2018-12-01T09:48:33.721Z</time>
      </trkpt>
      <trkpt lat="43.47236" lon="1.54981">
        <ele>161.621</ele>
        <time>2018-12-01T09:48:49.241Z</time>
      </trkpt>
      <trkpt lat="43.47232" lon="1.54969">
        <ele>164.345</ele>
        <time>2018-12-01T09:49:00.188Z</time>
      </trkpt>
      <trkpt lat="43.47225" lon="1.5496">
        <ele>166.466</ele>
        <time>2018-12-01T09:49:09.528Z</time>
      </trkpt>
      <trkpt lat="43.47217" lon="1.54951">
        <ele>167.827</ele>
        <time>2018-12-01T09:49:18.057Z</time>
      </trkpt>
      <trkpt lat="43.4721" lon="1.54942">
        <ele>168.842</ele>
        <time>2018-12-01T09:49:26.448Z</time>
      </trkpt>
      <trkpt lat="43.47202" lon="1.54935">
        <ele>169.742</ele>
        <time>2018-12-01T09:49:35.146Z</time>
      </trkpt>
      <trkpt lat="43.47195" lon="1.54926">
        <ele>170.537</ele>
        <time>2018-12-01T09:49:44.405Z</time>
      </trkpt>
      <trkpt lat="43.47187" lon="1.54918">
        <ele>171.207</ele>
        <time>2018-12-01T09:49:54.891Z</time>
      </trkpt>
      <trkpt lat="43.47181" lon="1.5491">
        <ele>171.802</ele>
        <time>2018-12-01T09:50:05.542Z</time>
      </trkpt>
      <trkpt lat="43.47172" lon="1.54904">
        <ele>172.441</ele>
        <time>2018-12-01T09:50:15.777Z</time>
      </trkpt>
      <trkpt lat="43.47166" lon="1.54893">
        <ele>173.248</ele>
        <time>2018-12-01T09:50:24.447Z</time>
      </trkpt>
      <trkpt lat="43.4716" lon="1.54883">
        <ele>174.268</ele>
        <time>2018-12-01T09:50:31.921Z</time>
      </trkpt>
      <trkpt lat="43.47158" lon="1.54871">
        <ele>175.4</ele>
        <time>2018-12-01T09:50:40.296Z</time>
      </trkpt>
      <trkpt lat="43.47156" lon="1.54858">
        <ele>176.546</ele>
        <time>2018-12-01T09:50:49.581Z</time>
      </trkpt>
      <trkpt lat="43.4716" lon="1.54846">
        <ele>177.748</ele>
        <time>2018-12-01T09:50:59.596Z</time>
      </trkpt>
      <trkpt lat="43.47165" lon="1.54835">
        <ele>179.05</ele>
        <time>2018-12-01T09:51:10.247Z</time>
      </trkpt>
      <trkpt lat="43.4717" lon="1.54825">
        <ele>180.39</ele>
        <time>2018-12-01T09:51:20.687Z</time>
      </trkpt>
      <trkpt lat="43.47174" lon="1.54813">
        <ele>181.732</ele>
        <time>2018-12-01T09:51:30.906Z</time>
      </trkpt>
      <trkpt lat="43.47178" lon="1.54801">
        <ele>183.093</ele>
        <time>2018-12-01T09:51:41.259Z</time>
      </trkpt>
      <trkpt lat="43.47183" lon="1.54791">
        <ele>184.58</ele>
        <time>2018-12-01T09:51:52.340Z</time>
      </trkpt>
      <trkpt lat="43.47185" lon="1.54777">
        <ele>186.278</ele>
        <time>2018-12-01T09:52:03.773Z</time>
      </trkpt>
      <trkpt lat="43.47192" lon="1.54766">
        <ele>188.13</ele>
        <time>2018-12-01T09:52:15.495Z</time>
      </trkpt>
      <trkpt lat="43.47195" lon="1.54754">
        <ele>190.055</ele>
        <time>2018-12-01T09:52:25.265Z</time>
      </trkpt>
      <trkpt lat="43.47198" lon="1.54741">
        <ele>191.839</ele>
        <time>2018-12-01T09:52:34.755Z</time>
      </trkpt>
      <trkpt lat="43.47202" lon="1.54729">
        <ele>193.237</ele>
        <time>2018-12-01T09:52:44.247Z</time>
      </trkpt>
      <trkpt lat="43.47201" lon="1.54716">
        <ele>194.281</ele>
        <time>2018-12-01T09:52:54.012Z</time>
      </trkpt>
      <trkpt lat="43.47203" lon="1.54703">
        <ele>195.075</ele>
        <time>2018-12-01T09:53:03.227Z</time>
      </trkpt>
      <trkpt lat="43.47204" lon="1.5469">
        <ele>195.707</ele>
        <time>2018-12-01T09:53:13.238Z</time>
      </trkpt>
      <trkpt lat="43.47205" lon="1.54677">
        <ele>196.356</ele>
        <time>2018-12-01T09:53:22.681Z</time>
      </trkpt>
      <trkpt lat="43.47207" lon="1.54663">
        <ele>197.063</ele>
        <time>2018-12-01T09:53:32.837Z</time>
      </trkpt>
      <trkpt lat="43.47209" lon="1.54649">
        <ele>197.696</ele>
        <time>2018-12-01T09:53:42.230Z</time>
      </trkpt>
      <trkpt lat="43.4721" lon="1.54636">
        <ele>198.237</ele>
        <time>2018-12-01T09:53:51.348Z</time>
      </trkpt>
      <trkpt lat="43.47212" lon="1.54624">
        <ele>198.797</ele>
        <time>2018-12-01T09:53:59.583Z</time>
      </trkpt>
      <trkpt lat="43.47214" lon="1.5461">
        <ele>199.398</ele>
        <time>2018-12-01T09:54:08.459Z</time>
      </trkpt>
      <trkpt lat="43.47216" lon="1.54598">
        <ele>199.993</ele>
        <time>2018-12-01T09:54:16.598Z</time>
      </trkpt>
      <trkpt lat="43.47216" lon="1.54585">
        <ele>200.59</ele>
        <time>2018-12-01T09:54:25.460Z</time>
      </trkpt>
      <trkpt lat="43.47217" lon="1.54573">
        <ele>201.282</ele>
        <time>2018-12-01T09:54:35.022Z</time>
      </trkpt>
      <trkpt lat="43.47219" lon="1.5456">
        <ele>202.166</ele>
        <time>2018-12-01T09:54:45.602Z</time>
      </trkpt>
      <trkpt lat="43.47218" lon="1.54547">
        <ele>203.26</ele>
        <time>2018-12-01T09:54:56.139Z</time>
      </trkpt>
      <trkpt lat="43.4722" lon="1.54534">
        <ele>204.482</ele>
        <time>2018-12-01T09:55:06.912Z</time>
      </trkpt>
      <trkpt lat="43.47221" lon="1.54522">
        <ele>205.702</ele>
        <time>2018-12-01T09:55:17.061Z</time>
      </trkpt>
      <trkpt lat="43.47222" lon="1.54509">
        <ele>206.861</ele>
        <time>2018-12-01T09:55:28.512Z</time>
      </trkpt>
      <trkpt lat="43.47223" lon="1.54496">
        <ele>208.079</ele>
        <time>2018-12-01T09:55:39.623Z</time>
      </trkpt>
      <trkpt lat="43.47224" lon="1.54483">
        <ele>209.49</ele>
        <time>2018-12-01T09:55:49.986Z</time>
      </trkpt>
      <trkpt lat="43.47226" lon="1.54469">
        <ele>210.998</ele>
        <time>2018-12-01T09:56:00.106Z</time>
      </trkpt>
      <trkpt lat="43.47229" lon="1.54456">
        <ele>212.378</ele>
        <time>2018-12-01T09:56:10.560Z</time>
      </trkpt>
      <trkpt lat="43.47228" lon="1.54443">
        <ele>213.51</ele>
        <time>2018-12-01T09:56:20.471Z</time>
      </trkpt>
      <trkpt lat="43.47228" lon="1.54431">
        <ele>214.412</ele>
        <time>2018-12-01T09:56:31.125Z</time>
      </trkpt>
      <trkpt lat="43.47229" lon="1.54417">
        <ele>215.249</ele>
        <time>2018-12-01T09:56:43.575Z</time>
      </trkpt>
      <trkpt lat="43.47229" lon="1.54405">
        <ele>216.191</ele>
        <time>2018-12-01T09:56:54.122Z</time>
      </trkpt>
      <trkpt lat="43.47231" lon="1.54393">
        <ele>217.242</ele>
        <time>2018-12-01T09:57:03.459Z</time>
      </trkpt>
      <trkpt lat="43.4723" lon="1.5438">
        <ele>218.251</ele>
        <time>2018-12-01T09:57:12.731Z</time>
      </trkpt>
      <trkpt lat="43.47231" lon="1.54367">
        <ele>219.129</ele>
        <time>2018-12-01T09:57:21.904Z</time>
      </trkpt>
      <trkpt lat="43.47232" lon="1.54355">
        <ele>219.943</ele>
        <time>2018-12-01T09:57:31.011Z</time>
      </trkpt>
      <trkpt lat="43.47235" lon="1.54343">
        <ele>220.837</ele>
        <time>2018-12-01T09:57:40.450Z</time>
      </trkpt>
      <trkpt lat="43.47239" lon="1.54331">
        <ele>221.876</ele>
        <time>2018-12-01T09:57:50.417Z</time>
      </trkpt>
      <trkpt lat="43.47243" lon="1.54318">
        <ele>223.042</ele>
        <time>2018-12-01T09:58:00.917Z</time>
      </trkpt>
      <trkpt lat="43.47246" lon="1.54305">
        <ele>224.328</ele>
        <time>2018-12-01T09:58:10.428Z</time>
      </trkpt>
      <trkpt lat="43.47248" lon="1.54293">
        <ele>225.673</ele>
        <time>2018-12-01T09:58:18.969Z</time>
      </trkpt>
      <trkpt lat="43.47248" lon="1.54293">
        <ele>226.77</ele>
        <time>2018-12-01T09:58:24.969Z</time>
      </trkpt>
      <trkpt lat="43.47248" lon="1.54293">
        <ele>227.234</ele>
        <time>2018-12-01T10:01:47.454Z</time>
      </trkpt>
      <trkpt lat="43.47255" lon="1.54281">
        <ele>227.081</ele>
        <time>2018-12-01T10:02:06.847Z</time>
      </trkpt>
      <trkpt lat="43.47261" lon="1.54272">
        <ele>226.936</ele>
        <time>2018-12-01T10:02:16.051Z</time>
      </trkpt>
      <trkpt lat="43.47268" lon="1.54262">
        <ele>227.254</ele>
        <time>2018-12-01T10:02:24.641Z</time>
      </trkpt>
      <trkpt lat="43.47275" lon="1.54253">
        <ele>227.795</ele>
        <time>2018-12-01T10:02:33.097Z</time>
      </trkpt>
      <trkpt lat="43.47281" lon="1.54243">
        <ele>228.224</ele>
        <time>2018-12-01T10:02:40.923Z</time>
      </trkpt>
      <trkpt lat="43.47288" lon="1.54233">
        <ele>228.506</ele>
        <time>2018-12-01T10:02:48.381Z</time>
      </trkpt>
      <trkpt lat="43.47294" lon="1.54223">
        <ele>228.715</ele>
        <time>2018-12-01T10:02:56.080Z</time>
      </trkpt>
      <trkpt lat="43.473" lon="1.54214">
        <ele>228.927</ele>
        <time>2018-12-01T10:03:02.818Z</time>
      </trkpt>
      <trkpt lat="43.47307" lon="1.54204">
        <ele>229.166</ele>
        <time>2018-12-01T10:03:10.093Z</time>
      </trkpt>
      <trkpt lat="43.47311" lon="1.54192">
        <ele>229.398</ele>
        <time>2018-12-01T10:03:17.967Z</time>
      </trkpt>
      <trkpt lat="43.47307" lon="1.54179">
        <ele>229.608</ele>
        <time>2018-12-01T10:03:25.732Z</time>
      </trkpt>
      <trkpt lat="43.47299" lon="1.5417">
        <ele>229.876</ele>
        <time>2018-12-01T10:03:33.712Z</time>
      </trkpt>
      <trkpt lat="43.47293" lon="1.5416">
        <ele>230.251</ele>
        <time>2018-12-01T10:03:40.565Z</time>
      </trkpt>
      <trkpt lat="43.47287" lon="1.54148">
        <ele>230.653</ele>
        <time>2018-12-01T10:03:47.821Z</time>
      </trkpt>
      <trkpt lat="43.47281" lon="1.54139">
        <ele>230.976</ele>
        <time>2018-12-01T10:03:55.163Z</time>
      </trkpt>
      <trkpt lat="43.47274" lon="1.5413">
        <ele>231.173</ele>
        <time>2018-12-01T10:04:03.128Z</time>
      </trkpt>
      <trkpt lat="43.47268" lon="1.54119">
        <ele>231.291</ele>
        <time>2018-12-01T10:04:10.903Z</time>
      </trkpt>
      <trkpt lat="43.47262" lon="1.54111">
        <ele>231.468</ele>
        <time>2018-12-01T10:04:18.956Z</time>
      </trkpt>
      <trkpt lat="43.47262" lon="1.54111">
        <ele>231.727</ele>
        <time>2018-12-01T10:04:19.956Z</time>
      </trkpt>
      <trkpt lat="43.47262" lon="1.54111">
        <ele>231.865</ele>
        <time>2018-12-01T10:06:48.321Z</time>
      </trkpt>
      <trkpt lat="43.47255" lon="1.54101">
        <ele>231.571</ele>
        <time>2018-12-01T10:07:03.676Z</time>
      </trkpt>
      <trkpt lat="43.47249" lon="1.54092">
        <ele>231.354</ele>
        <time>2018-12-01T10:07:12.024Z</time>
      </trkpt>
      <trkpt lat="43.47249" lon="1.54092">
        <ele>231.051</ele>
        <time>2018-12-01T10:07:20.018Z</time>
      </trkpt>
      <trkpt lat="43.47249" lon="1.54092">
        <ele>230.793</ele>
        <time>2018-12-01T10:07:20.118Z</time>
      </trkpt>
      <trkpt lat="43.47239" lon="1.54085">
        <ele>230.746</ele>
        <time>2018-12-01T10:07:35.507Z</time>
      </trkpt>
      <trkpt lat="43.47229" lon="1.54082">
        <ele>230.94</ele>
        <time>2018-12-01T10:07:44.164Z</time>
      </trkpt>
      <trkpt lat="43.4722" lon="1.54084">
        <ele>231.351</ele>
        <time>2018-12-01T10:07:51.321Z</time>
      </trkpt>
      <trkpt lat="43.47211" lon="1.54087">
        <ele>231.881</ele>
        <time>2018-12-01T10:07:58.106Z</time>
      </trkpt>
      <trkpt lat="43.47202" lon="1.54091">
        <ele>232.43</ele>
        <time>2018-12-01T10:08:05.207Z</time>
      </trkpt>
      <trkpt lat="43.47193" lon="1.54094">
        <ele>232.937</ele>
        <time>2018-12-01T10:08:13.022Z</time>
      </trkpt>
      <trkpt lat="43.47193" lon="1.54094">
        <ele>233.307</ele>
        <time>2018-12-01T10:08:15.018Z</time>
      </trkpt>
      <trkpt lat="43.47193" lon="1.54094">
        <ele>233.419</ele>
        <time>2018-12-01T10:08:52.185Z</time>
      </trkpt>
      <trkpt lat="43.47183" lon="1.54098">
        <ele>233.127</ele>
        <time>2018-12-01T10:09:13.654Z</time>
      </trkpt>
      <trkpt lat="43.47174" lon="1.54102">
        <ele>233.115</ele>
        <time>2018-12-01T10:09:21.272Z</time>
      </trkpt>
      <trkpt lat="43.47164" lon="1.54106">
        <ele>233.312</ele>
        <time>2018-12-01T10:09:28.783Z</time>
      </trkpt>
      <trkpt lat="43.47156" lon="1.5411">
        <ele>233.461</ele>
        <time>2018-12-01T10:09:35.446Z</time>
      </trkpt>
      <trkpt lat="43.47148" lon="1.54117">
        <ele>233.306</ele>
        <time>2018-12-01T10:09:42.720Z</time>
      </trkpt>
      <trkpt lat="43.47138" lon="1.54121">
        <ele>232.884</ele>
        <time>2018-12-01T10:09:50.278Z</time>
      </trkpt>
      <trkpt lat="43.47129" lon="1.54125">
        <ele>232.293</ele>
        <time>2018-12-01T10:09:57.981Z</time>
      </trkpt>
      <trkpt lat="43.47119" lon="1.5413">
        <ele>231.614</ele>
        <time>2018-12-01T10:10:05.873Z</time>
      </trkpt>
      <trkpt lat="43.4711" lon="1.54135">
        <ele>230.939</ele>
        <time>2018-12-01T10:10:13.581Z</time>
      </trkpt>
      <trkpt lat="43.47101" lon="1.54139">
        <ele>230.297</ele>
        <time>2018-12-01T10:10:21.183Z</time>
      </trkpt>
      <trkpt lat="43.47092" lon="1.54143">
        <ele>229.679</ele>
        <time>2018-12-01T10:10:28.271Z</time>
      </trkpt>
      <trkpt lat="43.47083" lon="1.54148">
        <ele>229.116</ele>
        <time>2018-12-01T10:10:36.002Z</time>
      </trkpt>
      <trkpt lat="43.47074" lon="1.54153">
        <ele>228.622</ele>
        <time>2018-12-01T10:10:43.716Z</time>
      </trkpt>
      <trkpt lat="43.47064" lon="1.54157">
        <ele>228.178</ele>
        <time>2018-12-01T10:10:51.392Z</time>
      </trkpt>
      <trkpt lat="43.47055" lon="1.54162">
        <ele>227.737</ele>
        <time>2018-12-01T10:10:58.253Z</time>
      </trkpt>
      <trkpt lat="43.47046" lon="1.54166">
        <ele>227.294</ele>
        <time>2018-12-01T10:11:05.425Z</time>
      </trkpt>
      <trkpt lat="43.47037" lon="1.54169">
        <ele>226.864</ele>
        <time>2018-12-01T10:11:12.706Z</time>
      </trkpt>
      <trkpt lat="43.47027" lon="1.54175">
        <ele>226.456</ele>
        <time>2018-12-01T10:11:20.900Z</time>
      </trkpt>
      <trkpt lat="43.47018" lon="1.5418">
        <ele>226.056</ele>
        <time>2018-12-01T10:11:28.666Z</time>
      </trkpt>
      <trkpt lat="43.47009" lon="1.54187">
        <ele>225.697</ele>
        <time>2018-12-01T10:11:38.417Z</time>
      </trkpt>
      <trkpt lat="43.47" lon="1.54193">
        <ele>225.44</ele>
        <time>2018-12-01T10:11:48.687Z</time>
      </trkpt>
      <trkpt lat="43.46993" lon="1.54202">
        <ele>225.28</ele>
        <time>2018-12-01T10:11:58.437Z</time>
      </trkpt>
      <trkpt lat="43.46984" lon="1.54194">
        <ele>225.11</ele>
        <time>2018-12-01T10:12:07.778Z</time>
      </trkpt>
      <trkpt lat="43.46982" lon="1.54182">
        <ele>224.747</ele>
        <time>2018-12-01T10:12:15.297Z</time>
      </trkpt>
      <trkpt lat="43.46979" lon="1.5417">
        <ele>224.122</ele>
        <time>2018-12-01T10:12:23.460Z</time>
      </trkpt>
      <trkpt lat="43.46975" lon="1.54158">
        <ele>223.443</ele>
        <time>2018-12-01T10:12:31.275Z</time>
      </trkpt>
      <trkpt lat="43.4697" lon="1.54146">
        <ele>222.968</ele>
        <time>2018-12-01T10:12:39.004Z</time>
      </trkpt>
      <trkpt lat="43.46967" lon="1.54134">
        <ele>222.739</ele>
        <time>2018-12-01T10:12:45.903Z</time>
      </trkpt>
      <trkpt lat="43.46965" lon="1.54122">
        <ele>222.662</ele>
        <time>2018-12-01T10:12:52.628Z</time>
      </trkpt>
      <trkpt lat="43.46963" lon="1.54109">
        <ele>222.627</ele>
        <time>2018-12-01T10:12:59.669Z</time>
      </trkpt>
      <trkpt lat="43.46961" lon="1.54096">
        <ele>222.538</ele>
        <time>2018-12-01T10:13:07.186Z</time>
      </trkpt>
      <trkpt lat="43.46958" lon="1.54084">
        <ele>222.351</ele>
        <time>2018-12-01T10:13:14.974Z</time>
      </trkpt>
      <trkpt lat="43.46958" lon="1.5407">
        <ele>222.087</ele>
        <time>2018-12-01T10:13:22.837Z</time>
      </trkpt>
      <trkpt lat="43.46956" lon="1.54058">
        <ele>221.814</ele>
        <time>2018-12-01T10:13:29.701Z</time>
      </trkpt>
      <trkpt lat="43.46953" lon="1.54046">
        <ele>221.565</ele>
        <time>2018-12-01T10:13:36.720Z</time>
      </trkpt>
      <trkpt lat="43.4695" lon="1.54033">
        <ele>221.333</ele>
        <time>2018-12-01T10:13:43.526Z</time>
      </trkpt>
      <trkpt lat="43.46948" lon="1.54021">
        <ele>221.089</ele>
        <time>2018-12-01T10:13:50.268Z</time>
      </trkpt>
      <trkpt lat="43.46947" lon="1.54007">
        <ele>220.777</ele>
        <time>2018-12-01T10:13:58.056Z</time>
      </trkpt>
      <trkpt lat="43.46946" lon="1.53994">
        <ele>220.35</ele>
        <time>2018-12-01T10:14:05.944Z</time>
      </trkpt>
      <trkpt lat="43.46943" lon="1.53981">
        <ele>219.867</ele>
        <time>2018-12-01T10:14:14.078Z</time>
      </trkpt>
      <trkpt lat="43.4694" lon="1.53968">
        <ele>219.42</ele>
        <time>2018-12-01T10:14:22.292Z</time>
      </trkpt>
      <trkpt lat="43.46937" lon="1.53955">
        <ele>219.055</ele>
        <time>2018-12-01T10:14:29.405Z</time>
      </trkpt>
      <trkpt lat="43.46933" lon="1.53943">
        <ele>218.802</ele>
        <time>2018-12-01T10:14:36.195Z</time>
      </trkpt>
      <trkpt lat="43.46931" lon="1.53931">
        <ele>218.644</ele>
        <time>2018-12-01T10:14:42.978Z</time>
      </trkpt>
      <trkpt lat="43.46927" lon="1.53919">
        <ele>218.475</ele>
        <time>2018-12-01T10:14:50.385Z</time>
      </trkpt>
      <trkpt lat="43.46924" lon="1.53907">
        <ele>218.149</ele>
        <time>2018-12-01T10:14:58.039Z</time>
      </trkpt>
      <trkpt lat="43.46919" lon="1.53896">
        <ele>217.551</ele>
        <time>2018-12-01T10:15:06.005Z</time>
      </trkpt>
      <trkpt lat="43.46916" lon="1.53884">
        <ele>216.697</ele>
        <time>2018-12-01T10:15:13.303Z</time>
      </trkpt>
      <trkpt lat="43.46913" lon="1.53872">
        <ele>215.744</ele>
        <time>2018-12-01T10:15:20.089Z</time>
      </trkpt>
      <trkpt lat="43.46908" lon="1.53861">
        <ele>214.819</ele>
        <time>2018-12-01T10:15:26.869Z</time>
      </trkpt>
      <trkpt lat="43.46905" lon="1.53849">
        <ele>213.931</ele>
        <time>2018-12-01T10:15:34.290Z</time>
      </trkpt>
      <trkpt lat="43.46902" lon="1.53837">
        <ele>213.034</ele>
        <time>2018-12-01T10:15:41.745Z</time>
      </trkpt>
      <trkpt lat="43.469" lon="1.53825">
        <ele>212.106</ele>
        <time>2018-12-01T10:15:49.637Z</time>
      </trkpt>
      <trkpt lat="43.46896" lon="1.53812">
        <ele>211.157</ele>
        <time>2018-12-01T10:15:58.620Z</time>
      </trkpt>
      <trkpt lat="43.46895" lon="1.53799">
        <ele>210.159</ele>
        <time>2018-12-01T10:16:07.285Z</time>
      </trkpt>
      <trkpt lat="43.46894" lon="1.53786">
        <ele>209.024</ele>
        <time>2018-12-01T10:16:15.783Z</time>
      </trkpt>
      <trkpt lat="43.46892" lon="1.53773">
        <ele>207.674</ele>
        <time>2018-12-01T10:16:24.499Z</time>
      </trkpt>
      <trkpt lat="43.4689" lon="1.5376">
        <ele>206.16</ele>
        <time>2018-12-01T10:16:32.515Z</time>
      </trkpt>
      <trkpt lat="43.4689" lon="1.53746">
        <ele>204.691</ele>
        <time>2018-12-01T10:16:40.091Z</time>
      </trkpt>
      <trkpt lat="43.46888" lon="1.53734">
        <ele>203.381</ele>
        <time>2018-12-01T10:16:47.006Z</time>
      </trkpt>
      <trkpt lat="43.46888" lon="1.53734">
        <ele>202.323</ele>
        <time>2018-12-01T10:16:51.998Z</time>
      </trkpt>
      <trkpt lat="43.46888" lon="1.53734">
        <ele>201.759</ele>
        <time>2018-12-01T10:16:56.983Z</time>
      </trkpt>
      <trkpt lat="43.46886" lon="1.53719">
        <ele>201.911</ele>
        <time>2018-12-01T10:17:12.296Z</time>
      </trkpt>
      <trkpt lat="43.46884" lon="1.53706">
        <ele>201.816</ele>
        <time>2018-12-01T10:17:20.394Z</time>
      </trkpt>
      <trkpt lat="43.46884" lon="1.53693">
        <ele>201.128</ele>
        <time>2018-12-01T10:17:27.745Z</time>
      </trkpt>
      <trkpt lat="43.46882" lon="1.5368">
        <ele>200.124</ele>
        <time>2018-12-01T10:17:34.403Z</time>
      </trkpt>
      <trkpt lat="43.46881" lon="1.53667">
        <ele>199.246</ele>
        <time>2018-12-01T10:17:41.340Z</time>
      </trkpt>
      <trkpt lat="43.46879" lon="1.53655">
        <ele>198.515</ele>
        <time>2018-12-01T10:17:48.124Z</time>
      </trkpt>
      <trkpt lat="43.46878" lon="1.53641">
        <ele>197.841</ele>
        <time>2018-12-01T10:17:55.022Z</time>
      </trkpt>
      <trkpt lat="43.46878" lon="1.53641">
        <ele>197.318</ele>
        <time>2018-12-01T10:18:01.998Z</time>
      </trkpt>
      <trkpt lat="43.46878" lon="1.53641">
        <ele>197.059</ele>
        <time>2018-12-01T10:18:24.793Z</time>
      </trkpt>
      <trkpt lat="43.46872" lon="1.53627">
        <ele>197.036</ele>
        <time>2018-12-01T10:18:39.152Z</time>
      </trkpt>
      <trkpt lat="43.46866" lon="1.53617">
        <ele>196.928</ele>
        <time>2018-12-01T10:18:46.364Z</time>
      </trkpt>
      <trkpt lat="43.46859" lon="1.5361">
        <ele>196.569</ele>
        <time>2018-12-01T10:18:53.990Z</time>
      </trkpt>
      <trkpt lat="43.46859" lon="1.5361">
        <ele>196.185</ele>
        <time>2018-12-01T10:19:02.981Z</time>
      </trkpt>
      <trkpt lat="43.46859" lon="1.5361">
        <ele>196.003</ele>
        <time>2018-12-01T10:19:50.013Z</time>
      </trkpt>
      <trkpt lat="43.46858" lon="1.53595">
        <ele>196.017</ele>
        <time>2018-12-01T10:20:04.770Z</time>
      </trkpt>
      <trkpt lat="43.4686" lon="1.53582">
        <ele>196.138</ele>
        <time>2018-12-01T10:20:13.156Z</time>
      </trkpt>
      <trkpt lat="43.46863" lon="1.53569">
        <ele>196.235</ele>
        <time>2018-12-01T10:20:21.186Z</time>
      </trkpt>
      <trkpt lat="43.46867" lon="1.53557">
        <ele>196.23</ele>
        <time>2018-12-01T10:20:28.896Z</time>
      </trkpt>
      <trkpt lat="43.46871" lon="1.53545">
        <ele>196.127</ele>
        <time>2018-12-01T10:20:36.946Z</time>
      </trkpt>
      <trkpt lat="43.46876" lon="1.53534">
        <ele>195.981</ele>
        <time>2018-12-01T10:20:44.533Z</time>
      </trkpt>
      <trkpt lat="43.4688" lon="1.53522">
        <ele>195.889</ele>
        <time>2018-12-01T10:20:52.946Z</time>
      </trkpt>
      <trkpt lat="43.46884" lon="1.53509">
        <ele>195.924</ele>
        <time>2018-12-01T10:21:01.259Z</time>
      </trkpt>
      <trkpt lat="43.46887" lon="1.53497">
        <ele>196.066</ele>
        <time>2018-12-01T10:21:08.316Z</time>
      </trkpt>
      <trkpt lat="43.46892" lon="1.53487">
        <ele>196.206</ele>
        <time>2018-12-01T10:21:15.628Z</time>
      </trkpt>
      <trkpt lat="43.46896" lon="1.53474">
        <ele>196.3</ele>
        <time>2018-12-01T10:21:24.376Z</time>
      </trkpt>
      <trkpt lat="43.46897" lon="1.53461">
        <ele>196.393</ele>
        <time>2018-12-01T10:21:32.781Z</time>
      </trkpt>
      <trkpt lat="43.469" lon="1.53448">
        <ele>196.487</ele>
        <time>2018-12-01T10:21:41.193Z</time>
      </trkpt>
      <trkpt lat="43.46905" lon="1.53435">
        <ele>196.552</ele>
        <time>2018-12-01T10:21:49.104Z</time>
      </trkpt>
      <trkpt lat="43.46911" lon="1.53424">
        <ele>196.577</ele>
        <time>2018-12-01T10:21:56.900Z</time>
      </trkpt>
      <trkpt lat="43.46915" lon="1.53411">
        <ele>196.513</ele>
        <time>2018-12-01T10:22:04.622Z</time>
      </trkpt>
      <trkpt lat="43.4692" lon="1.534">
        <ele>196.349</ele>
        <time>2018-12-01T10:22:12.741Z</time>
      </trkpt>
      <trkpt lat="43.46925" lon="1.53389">
        <ele>196.233</ele>
        <time>2018-12-01T10:22:20.941Z</time>
      </trkpt>
      <trkpt lat="43.46928" lon="1.53377">
        <ele>196.275</ele>
        <time>2018-12-01T10:22:28.363Z</time>
      </trkpt>
      <trkpt lat="43.46932" lon="1.53366">
        <ele>196.385</ele>
        <time>2018-12-01T10:22:35.604Z</time>
      </trkpt>
      <trkpt lat="43.46936" lon="1.53354">
        <ele>196.456</ele>
        <time>2018-12-01T10:22:43.380Z</time>
      </trkpt>
      <trkpt lat="43.46941" lon="1.53343">
        <ele>196.497</ele>
        <time>2018-12-01T10:22:50.948Z</time>
      </trkpt>
      <trkpt lat="43.46945" lon="1.53331">
        <ele>196.569</ele>
        <time>2018-12-01T10:22:58.799Z</time>
      </trkpt>
      <trkpt lat="43.46948" lon="1.53317">
        <ele>196.681</ele>
        <time>2018-12-01T10:23:07.625Z</time>
      </trkpt>
      <trkpt lat="43.46948" lon="1.53303">
        <ele>196.761</ele>
        <time>2018-12-01T10:23:15.838Z</time>
      </trkpt>
      <trkpt lat="43.46945" lon="1.53291">
        <ele>196.709</ele>
        <time>2018-12-01T10:23:23.811Z</time>
      </trkpt>
      <trkpt lat="43.46942" lon="1.53278">
        <ele>196.515</ele>
        <time>2018-12-01T10:23:32.006Z</time>
      </trkpt>
      <trkpt lat="43.46942" lon="1.53278">
        <ele>196.302</ele>
        <time>2018-12-01T10:23:39.995Z</time>
      </trkpt>
      <trkpt lat="43.46942" lon="1.53278">
        <ele>196.179</ele>
        <time>2018-12-01T10:23:44.638Z</time>
      </trkpt>
      <trkpt lat="43.46937" lon="1.53257">
        <ele>196.125</ele>
        <time>2018-12-01T10:24:02.810Z</time>
      </trkpt>
      <trkpt lat="43.46941" lon="1.53246">
        <ele>196.084</ele>
        <time>2018-12-01T10:24:11.399Z</time>
      </trkpt>
      <trkpt lat="43.46948" lon="1.53237">
        <ele>195.936</ele>
        <time>2018-12-01T10:24:19.268Z</time>
      </trkpt>
      <trkpt lat="43.46956" lon="1.53229">
        <ele>195.528</ele>
        <time>2018-12-01T10:24:26.512Z</time>
      </trkpt>
      <trkpt lat="43.46963" lon="1.53221">
        <ele>194.911</ele>
        <time>2018-12-01T10:24:33.621Z</time>
      </trkpt>
      <trkpt lat="43.46971" lon="1.53215">
        <ele>194.325</ele>
        <time>2018-12-01T10:24:41.047Z</time>
      </trkpt>
      <trkpt lat="43.4698" lon="1.53216">
        <ele>193.876</ele>
        <time>2018-12-01T10:24:49.019Z</time>
      </trkpt>
      <trkpt lat="43.4698" lon="1.53216">
        <ele>193.553</ele>
        <time>2018-12-01T10:24:56.995Z</time>
      </trkpt>
      <trkpt lat="43.4698" lon="1.53216">
        <ele>193.366</ele>
        <time>2018-12-01T10:24:58.667Z</time>
      </trkpt>
      <trkpt lat="43.4699" lon="1.5321">
        <ele>193.302</ele>
        <time>2018-12-01T10:25:11.615Z</time>
      </trkpt>
      <trkpt lat="43.46997" lon="1.532">
        <ele>193.086</ele>
        <time>2018-12-01T10:25:19.266Z</time>
      </trkpt>
      <trkpt lat="43.47003" lon="1.53191">
        <ele>192.468</ele>
        <time>2018-12-01T10:25:25.649Z</time>
      </trkpt>
      <trkpt lat="43.4701" lon="1.5318">
        <ele>191.608</ele>
        <time>2018-12-01T10:25:32.681Z</time>
      </trkpt>
      <trkpt lat="43.47016" lon="1.53171">
        <ele>190.807</ele>
        <time>2018-12-01T10:25:39.970Z</time>
      </trkpt>
      <trkpt lat="43.47023" lon="1.53161">
        <ele>190.126</ele>
        <time>2018-12-01T10:25:47.988Z</time>
      </trkpt>
      <trkpt lat="43.47023" lon="1.53161">
        <ele>189.591</ele>
        <time>2018-12-01T10:25:51.983Z</time>
      </trkpt>
      <trkpt lat="43.47023" lon="1.53161">
        <ele>189.296</ele>
        <time>2018-12-01T10:25:52.083Z</time>
      </trkpt>
      <trkpt lat="43.47029" lon="1.5315">
        <ele>189.244</ele>
        <time>2018-12-01T10:26:06.156Z</time>
      </trkpt>
      <trkpt lat="43.47034" lon="1.53139">
        <ele>189.179</ele>
        <time>2018-12-01T10:26:14.939Z</time>
      </trkpt>
      <trkpt lat="43.47038" lon="1.53128">
        <ele>188.807</ele>
        <time>2018-12-01T10:26:24.193Z</time>
      </trkpt>
      <trkpt lat="43.47044" lon="1.53118">
        <ele>188.063</ele>
        <time>2018-12-01T10:26:33.355Z</time>
      </trkpt>
      <trkpt lat="43.4705" lon="1.53107">
        <ele>187.017</ele>
        <time>2018-12-01T10:26:42.487Z</time>
      </trkpt>
      <trkpt lat="43.47053" lon="1.53095">
        <ele>185.676</ele>
        <time>2018-12-01T10:26:49.988Z</time>
      </trkpt>
      <trkpt lat="43.47059" lon="1.53086">
        <ele>184.063</ele>
        <time>2018-12-01T10:26:56.849Z</time>
      </trkpt>
      <trkpt lat="43.47065" lon="1.53076">
        <ele>182.331</ele>
        <time>2018-12-01T10:27:03.713Z</time>
      </trkpt>
      <trkpt lat="43.47071" lon="1.53066">
        <ele>180.781</ele>
        <time>2018-12-01T10:27:12.825Z</time>
      </trkpt>
      <trkpt lat="43.47075" lon="1.53053">
        <ele>179.732</ele>
        <time>2018-12-01T10:27:24.600Z</time>
      </trkpt>
      <trkpt lat="43.47078" lon="1.53041">
        <ele>179.408</ele>
        <time>2018-12-01T10:27:35.623Z</time>
      </trkpt>
      <trkpt lat="43.47082" lon="1.53029">
        <ele>179.875</ele>
        <time>2018-12-01T10:27:46.267Z</time>
      </trkpt>
      <trkpt lat="43.4708" lon="1.53016">
        <ele>180.953</ele>
        <time>2018-12-01T10:27:59.326Z</time>
      </trkpt>
      <trkpt lat="43.47083" lon="1.53003">
        <ele>182.382</ele>
        <time>2018-12-01T10:28:13.368Z</time>
      </trkpt>
      <trkpt lat="43.47082" lon="1.52991">
        <ele>184.199</ele>
        <time>2018-12-01T10:28:24.162Z</time>
      </trkpt>
      <trkpt lat="43.47083" lon="1.52978">
        <ele>186.433</ele>
        <time>2018-12-01T10:28:33.725Z</time>
      </trkpt>
      <trkpt lat="43.47085" lon="1.52965">
        <ele>188.579</ele>
        <time>2018-12-01T10:28:43.527Z</time>
      </trkpt>
      <trkpt lat="43.47087" lon="1.52953">
        <ele>190.133</ele>
        <time>2018-12-01T10:28:52.395Z</time>
      </trkpt>
      <trkpt lat="43.47091" lon="1.52941">
        <ele>191.224</ele>
        <time>2018-12-01T10:29:01.651Z</time>
      </trkpt>
      <trkpt lat="43.47094" lon="1.52929">
        <ele>192.187</ele>
        <time>2018-12-01T10:29:11.920Z</time>
      </trkpt>
      <trkpt lat="43.47098" lon="1.52918">
        <ele>193.212</ele>
        <time>2018-12-01T10:29:23.081Z</time>
      </trkpt>
      <trkpt lat="43.47102" lon="1.52907">
        <ele>194.385</ele>
        <time>2018-12-01T10:29:33.330Z</time>
      </trkpt>
      <trkpt lat="43.47105" lon="1.52894">
        <ele>195.691</ele>
        <time>2018-12-01T10:29:45.079Z</time>
      </trkpt>
      <trkpt lat="43.47109" lon="1.52882">
        <ele>197.084</ele>
        <time>2018-12-01T10:29:57.631Z</time>
      </trkpt>
      <trkpt lat="43.47111" lon="1.52869">
        <ele>198.591</ele>
        <time>2018-12-01T10:30:11.196Z</time>
      </trkpt>
      <trkpt lat="43.47116" lon="1.52858">
        <ele>200.273</ele>
        <time>2018-12-01T10:30:23.664Z</time>
      </trkpt>
      <trkpt lat="43.47125" lon="1.52854">
        <ele>202.14</ele>
        <time>2018-12-01T10:30:39.258Z</time>
      </trkpt>
      <trkpt lat="43.47136" lon="1.52853">
        <ele>204.034</ele>
        <time>2018-12-01T10:31:01.784Z</time>
      </trkpt>
      <trkpt lat="43.47145" lon="1.52855">
        <ele>205.826</ele>
        <time>2018-12-01T10:31:17.024Z</time>
      </trkpt>
      <trkpt lat="43.47153" lon="1.52862">
        <ele>207.482</ele>
        <time>2018-12-01T10:31:32.061Z</time>
      </trkpt>
      <trkpt lat="43.47153" lon="1.52862">
        <ele>208.767</ele>
        <time>2018-12-01T10:31:45.042Z</time>
      </trkpt>
      <trkpt lat="43.47153" lon="1.52862">
        <ele>209.306</ele>
        <time>2018-12-01T10:31:45.142Z</time>
      </trkpt>
      <trkpt lat="43.47165" lon="1.52867">
        <ele>209.149</ele>
        <time>2018-12-01T10:32:09.222Z</time>
      </trkpt>
      <trkpt lat="43.47172" lon="1.52876">
        <ele>209.619</ele>
        <time>2018-12-01T10:32:27.886Z</time>
      </trkpt>
      <trkpt lat="43.47181" lon="1.52882">
        <ele>211.982</ele>
        <time>2018-12-01T10:32:42.958Z</time>
      </trkpt>
      <trkpt lat="43.4719" lon="1.52885">
        <ele>215.57</ele>
        <time>2018-12-01T10:32:57.447Z</time>
      </trkpt>
      <trkpt lat="43.47198" lon="1.52894">
        <ele>218.845</ele>
        <time>2018-12-01T10:33:16.877Z</time>
      </trkpt>
      <trkpt lat="43.47205" lon="1.52902">
        <ele>221.322</ele>
        <time>2018-12-01T10:33:32.602Z</time>
      </trkpt>
      <trkpt lat="43.47214" lon="1.52905">
        <ele>223.453</ele>
        <time>2018-12-01T10:33:44.290Z</time>
      </trkpt>
      <trkpt lat="43.47222" lon="1.5291">
        <ele>225.608</ele>
        <time>2018-12-01T10:33:54.059Z</time>
      </trkpt>
      <trkpt lat="43.4723" lon="1.52915">
        <ele>227.548</ele>
        <time>2018-12-01T10:34:03.243Z</time>
      </trkpt>
      <trkpt lat="43.47238" lon="1.52923">
        <ele>229.065</ele>
        <time>2018-12-01T10:34:12.488Z</time>
      </trkpt>
      <trkpt lat="43.47246" lon="1.5293">
        <ele>230.287</ele>
        <time>2018-12-01T10:34:22.347Z</time>
      </trkpt>
      <trkpt lat="43.47254" lon="1.52936">
        <ele>231.392</ele>
        <time>2018-12-01T10:34:32.496Z</time>
      </trkpt>
      <trkpt lat="43.47262" lon="1.52943">
        <ele>232.382</ele>
        <time>2018-12-01T10:34:43.590Z</time>
      </trkpt>
      <trkpt lat="43.47269" lon="1.5295">
        <ele>233.105</ele>
        <time>2018-12-01T10:34:52.510Z</time>
      </trkpt>
      <trkpt lat="43.47277" lon="1.52959">
        <ele>233.479</ele>
        <time>2018-12-01T10:35:00.246Z</time>
      </trkpt>
      <trkpt lat="43.47286" lon="1.52965">
        <ele>233.57</ele>
        <time>2018-12-01T10:35:07.417Z</time>
      </trkpt>
      <trkpt lat="43.47295" lon="1.52969">
        <ele>233.489</ele>
        <time>2018-12-01T10:35:14.176Z</time>
      </trkpt>
      <trkpt lat="43.47302" lon="1.52959">
        <ele>233.346</ele>
        <time>2018-12-01T10:35:22.061Z</time>
      </trkpt>
      <trkpt lat="43.47302" lon="1.52959">
        <ele>233.218</ele>
        <time>2018-12-01T10:35:25.041Z</time>
      </trkpt>
      <trkpt lat="43.47302" lon="1.52959">
        <ele>233.126</ele>
        <time>2018-12-01T10:40:21.001Z</time>
      </trkpt>
      <trkpt lat="43.4731" lon="1.52951">
        <ele>233.074</ele>
        <time>2018-12-01T10:40:35.704Z</time>
      </trkpt>
      <trkpt lat="43.47315" lon="1.5294">
        <ele>233.253</ele>
        <time>2018-12-01T10:40:44.670Z</time>
      </trkpt>
      <trkpt lat="43.4732" lon="1.5293">
        <ele>233.836</ele>
        <time>2018-12-01T10:40:53.584Z</time>
      </trkpt>
      <trkpt lat="43.47328" lon="1.52921">
        <ele>234.603</ele>
        <time>2018-12-01T10:41:03.143Z</time>
      </trkpt>
      <trkpt lat="43.47334" lon="1.52912">
        <ele>235.204</ele>
        <time>2018-12-01T10:41:12.035Z</time>
      </trkpt>
      <trkpt lat="43.47341" lon="1.52903">
        <ele>235.563</ele>
        <time>2018-12-01T10:41:21.344Z</time>
      </trkpt>
      <trkpt lat="43.47347" lon="1.52893">
        <ele>235.822</ele>
        <time>2018-12-01T10:41:31.037Z</time>
      </trkpt>
      <trkpt lat="43.47354" lon="1.52884">
        <ele>236.155</ele>
        <time>2018-12-01T10:41:41.131Z</time>
      </trkpt>
      <trkpt lat="43.4736" lon="1.52875">
        <ele>236.594</ele>
        <time>2018-12-01T10:41:50.701Z</time>
      </trkpt>
      <trkpt lat="43.47367" lon="1.52866">
        <ele>237.084</ele>
        <time>2018-12-01T10:42:00.011Z</time>
      </trkpt>
      <trkpt lat="43.47375" lon="1.52859">
        <ele>237.576</ele>
        <time>2018-12-01T10:42:07.975Z</time>
      </trkpt>
      <trkpt lat="43.4738" lon="1.52848">
        <ele>237.992</ele>
        <time>2018-12-01T10:42:15.536Z</time>
      </trkpt>
      <trkpt lat="43.47388" lon="1.52841">
        <ele>238.254</ele>
        <time>2018-12-01T10:42:23.474Z</time>
      </trkpt>
      <trkpt lat="43.47396" lon="1.52833">
        <ele>238.346</ele>
        <time>2018-12-01T10:42:32.185Z</time>
      </trkpt>
      <trkpt lat="43.47404" lon="1.52825">
        <ele>238.322</ele>
        <time>2018-12-01T10:42:43.360Z</time>
      </trkpt>
      <trkpt lat="43.47412" lon="1.52817">
        <ele>238.342</ele>
        <time>2018-12-01T10:42:52.654Z</time>
      </trkpt>
      <trkpt lat="43.47419" lon="1.5281">
        <ele>238.518</ele>
        <time>2018-12-01T10:43:01.043Z</time>
      </trkpt>
      <trkpt lat="43.47419" lon="1.5281">
        <ele>238.755</ele>
        <time>2018-12-01T10:43:07.065Z</time>
      </trkpt>
      <trkpt lat="43.47419" lon="1.5281">
        <ele>238.843</ele>
        <time>2018-12-01T10:43:07.165Z</time>
      </trkpt>
      <trkpt lat="43.47427" lon="1.52804">
        <ele>238.734</ele>
        <time>2018-12-01T10:43:24.056Z</time>
      </trkpt>
      <trkpt lat="43.47427" lon="1.52804">
        <ele>238.567</ele>
        <time>2018-12-01T10:43:28.046Z</time>
      </trkpt>
      <trkpt lat="43.47427" lon="1.52804">
        <ele>238.47</ele>
        <time>2018-12-01T10:43:36.415Z</time>
      </trkpt>
      <trkpt lat="43.47435" lon="1.52796">
        <ele>238.358</ele>
        <time>2018-12-01T10:43:47.066Z</time>
      </trkpt>
      <trkpt lat="43.47435" lon="1.52796">
        <ele>238.307</ele>
        <time>2018-12-01T10:43:59.051Z</time>
      </trkpt>
      <trkpt lat="43.47435" lon="1.52796">
        <ele>238.256</ele>
        <time>2018-12-01T10:46:01.960Z</time>
      </trkpt>
      <trkpt lat="43.47445" lon="1.52786">
        <ele>238.179</ele>
        <time>2018-12-01T10:46:30.084Z</time>
      </trkpt>
      <trkpt lat="43.47453" lon="1.52778">
        <ele>238.402</ele>
        <time>2018-12-01T10:46:39.887Z</time>
      </trkpt>
      <trkpt lat="43.47461" lon="1.52771">
        <ele>239.14</ele>
        <time>2018-12-01T10:46:47.731Z</time>
      </trkpt>
      <trkpt lat="43.47468" lon="1.52763">
        <ele>239.869</ele>
        <time>2018-12-01T10:46:55.591Z</time>
      </trkpt>
      <trkpt lat="43.47475" lon="1.52753">
        <ele>239.998</ele>
        <time>2018-12-01T10:47:04.545Z</time>
      </trkpt>
      <trkpt lat="43.47483" lon="1.52745">
        <ele>239.505</ele>
        <time>2018-12-01T10:47:11.955Z</time>
      </trkpt>
      <trkpt lat="43.47489" lon="1.52736">
        <ele>238.662</ele>
        <time>2018-12-01T10:47:19.621Z</time>
      </trkpt>
      <trkpt lat="43.47495" lon="1.52727">
        <ele>237.766</ele>
        <time>2018-12-01T10:47:27.494Z</time>
      </trkpt>
      <trkpt lat="43.47503" lon="1.52718">
        <ele>236.905</ele>
        <time>2018-12-01T10:47:36.054Z</time>
      </trkpt>
      <trkpt lat="43.4751" lon="1.52708">
        <ele>236.119</ele>
        <time>2018-12-01T10:47:45.709Z</time>
      </trkpt>
      <trkpt lat="43.47515" lon="1.52696">
        <ele>235.536</ele>
        <time>2018-12-01T10:47:55.720Z</time>
      </trkpt>
      <trkpt lat="43.47523" lon="1.52688">
        <ele>235.163</ele>
        <time>2018-12-01T10:48:04.229Z</time>
      </trkpt>
      <trkpt lat="43.4753" lon="1.52678">
        <ele>234.891</ele>
        <time>2018-12-01T10:48:12.265Z</time>
      </trkpt>
      <trkpt lat="43.47537" lon="1.52671">
        <ele>234.622</ele>
        <time>2018-12-01T10:48:20.509Z</time>
      </trkpt>
      <trkpt lat="43.47545" lon="1.52663">
        <ele>234.256</ele>
        <time>2018-12-01T10:48:30.053Z</time>
      </trkpt>
      <trkpt lat="43.47553" lon="1.52654">
        <ele>233.767</ele>
        <time>2018-12-01T10:48:38.850Z</time>
      </trkpt>
      <trkpt lat="43.47559" lon="1.52644">
        <ele>233.27</ele>
        <time>2018-12-01T10:48:46.731Z</time>
      </trkpt>
      <trkpt lat="43.47566" lon="1.52636">
        <ele>232.916</ele>
        <time>2018-12-01T10:48:54.862Z</time>
      </trkpt>
      <trkpt lat="43.47574" lon="1.52626">
        <ele>232.75</ele>
        <time>2018-12-01T10:49:03.682Z</time>
      </trkpt>
      <trkpt lat="43.47581" lon="1.52616">
        <ele>232.657</ele>
        <time>2018-12-01T10:49:12.180Z</time>
      </trkpt>
      <trkpt lat="43.47589" lon="1.5261">
        <ele>232.42</ele>
        <time>2018-12-01T10:49:21.625Z</time>
      </trkpt>
      <trkpt lat="43.47597" lon="1.52601">
        <ele>231.897</ele>
        <time>2018-12-01T10:49:31.615Z</time>
      </trkpt>
      <trkpt lat="43.47606" lon="1.52598">
        <ele>231.191</ele>
        <time>2018-12-01T10:49:40.899Z</time>
      </trkpt>
      <trkpt lat="43.47616" lon="1.52601">
        <ele>230.526</ele>
        <time>2018-12-01T10:49:50.567Z</time>
      </trkpt>
      <trkpt lat="43.47625" lon="1.52598">
        <ele>230.064</ele>
        <time>2018-12-01T10:50:01.721Z</time>
      </trkpt>
      <trkpt lat="43.47635" lon="1.52597">
        <ele>229.905</ele>
        <time>2018-12-01T10:50:11.292Z</time>
      </trkpt>
      <trkpt lat="43.47643" lon="1.52604">
        <ele>230.055</ele>
        <time>2018-12-01T10:50:19.888Z</time>
      </trkpt>
      <trkpt lat="43.47653" lon="1.52608">
        <ele>230.346</ele>
        <time>2018-12-01T10:50:28.904Z</time>
      </trkpt>
      <trkpt lat="43.47662" lon="1.52614">
        <ele>230.664</ele>
        <time>2018-12-01T10:50:37.891Z</time>
      </trkpt>
      <trkpt lat="43.47671" lon="1.52616">
        <ele>231.01</ele>
        <time>2018-12-01T10:50:46.753Z</time>
      </trkpt>
      <trkpt lat="43.4768" lon="1.52622">
        <ele>231.377</ele>
        <time>2018-12-01T10:50:55.162Z</time>
      </trkpt>
      <trkpt lat="43.47688" lon="1.52629">
        <ele>231.777</ele>
        <time>2018-12-01T10:51:03.237Z</time>
      </trkpt>
      <trkpt lat="43.47696" lon="1.52634">
        <ele>232.235</ele>
        <time>2018-12-01T10:51:11.560Z</time>
      </trkpt>
      <trkpt lat="43.47705" lon="1.5264">
        <ele>232.78</ele>
        <time>2018-12-01T10:51:20.876Z</time>
      </trkpt>
      <trkpt lat="43.47713" lon="1.52648">
        <ele>233.487</ele>
        <time>2018-12-01T10:51:29.743Z</time>
      </trkpt>
      <trkpt lat="43.47721" lon="1.52655">
        <ele>234.291</ele>
        <time>2018-12-01T10:51:37.789Z</time>
      </trkpt>
      <trkpt lat="43.47728" lon="1.52663">
        <ele>234.988</ele>
        <time>2018-12-01T10:51:45.586Z</time>
      </trkpt>
      <trkpt lat="43.47735" lon="1.52672">
        <ele>235.452</ele>
        <time>2018-12-01T10:51:53.773Z</time>
      </trkpt>
      <trkpt lat="43.47744" lon="1.52679">
        <ele>235.684</ele>
        <time>2018-12-01T10:52:02.024Z</time>
      </trkpt>
      <trkpt lat="43.47744" lon="1.52679">
        <ele>235.726</ele>
        <time>2018-12-01T10:52:13.030Z</time>
      </trkpt>
      <trkpt lat="43.47744" lon="1.52679">
        <ele>235.644</ele>
        <time>2018-12-01T10:52:13.130Z</time>
      </trkpt>
      <trkpt lat="43.47756" lon="1.52677">
        <ele>235.524</ele>
        <time>2018-12-01T10:52:23.904Z</time>
      </trkpt>
      <trkpt lat="43.47764" lon="1.52671">
        <ele>235.374</ele>
        <time>2018-12-01T10:52:29.029Z</time>
      </trkpt>
      <trkpt lat="43.47764" lon="1.52671">
        <ele>235.175</ele>
        <time>2018-12-01T10:52:30.031Z</time>
      </trkpt>
      <trkpt lat="43.47764" lon="1.52671">
        <ele>234.997</ele>
        <time>2018-12-01T10:52:31.800Z</time>
      </trkpt>
      <trkpt lat="43.47764" lon="1.52671">
        <ele>234.878</ele>
        <time>2018-12-01T10:52:39.026Z</time>
      </trkpt>
      <trkpt lat="43.47764" lon="1.52671">
        <ele>234.847</ele>
        <time>2018-12-01T10:52:39.126Z</time>
      </trkpt>
      <trkpt lat="43.47764" lon="1.52671">
        <ele>234.657</ele>
        <time>2018-12-01T10:52:41.016Z</time>
      </trkpt>
      <trkpt lat="43.47764" lon="1.52671">
        <ele>234.585</ele>
        <time>2018-12-01T10:52:41.328Z</time>
      </trkpt>
      <trkpt lat="43.47779" lon="1.52658">
        <ele>234.516</ele>
        <time>2018-12-01T10:53:01.059Z</time>
      </trkpt>
      <trkpt lat="43.47787" lon="1.52652">
        <ele>234.422</ele>
        <time>2018-12-01T10:53:08.962Z</time>
      </trkpt>
      <trkpt lat="43.47796" lon="1.52653">
        <ele>234.256</ele>
        <time>2018-12-01T10:53:16.981Z</time>
      </trkpt>
      <trkpt lat="43.47805" lon="1.52654">
        <ele>233.905</ele>
        <time>2018-12-01T10:53:23.924Z</time>
      </trkpt>
      <trkpt lat="43.47814" lon="1.52658">
        <ele>233.376</ele>
        <time>2018-12-01T10:53:31.221Z</time>
      </trkpt>
      <trkpt lat="43.47824" lon="1.52661">
        <ele>232.839</ele>
        <time>2018-12-01T10:53:38.827Z</time>
      </trkpt>
      <trkpt lat="43.47831" lon="1.52668">
        <ele>232.33</ele>
        <time>2018-12-01T10:53:45.690Z</time>
      </trkpt>
      <trkpt lat="43.4784" lon="1.52674">
        <ele>231.783</ele>
        <time>2018-12-01T10:53:52.254Z</time>
      </trkpt>
      <trkpt lat="43.47847" lon="1.52681">
        <ele>231.271</ele>
        <time>2018-12-01T10:53:58.202Z</time>
      </trkpt>
      <trkpt lat="43.47856" lon="1.52688">
        <ele>230.86</ele>
        <time>2018-12-01T10:54:04.977Z</time>
      </trkpt>
      <trkpt lat="43.47863" lon="1.52697">
        <ele>230.408</ele>
        <time>2018-12-01T10:54:11.018Z</time>
      </trkpt>
      <trkpt lat="43.47863" lon="1.52697">
        <ele>229.874</ele>
        <time>2018-12-01T10:54:21.028Z</time>
      </trkpt>
      <trkpt lat="43.47863" lon="1.52697">
        <ele>229.496</ele>
        <time>2018-12-01T10:54:21.128Z</time>
      </trkpt>
      <trkpt lat="43.47872" lon="1.52699">
        <ele>229.419</ele>
        <time>2018-12-01T10:54:35.311Z</time>
      </trkpt>
      <trkpt lat="43.47879" lon="1.52689">
        <ele>229.222</ele>
        <time>2018-12-01T10:54:44.411Z</time>
      </trkpt>
      <trkpt lat="43.47886" lon="1.52681">
        <ele>228.55</ele>
        <time>2018-12-01T10:54:53.105Z</time>
      </trkpt>
      <trkpt lat="43.47891" lon="1.52671">
        <ele>227.718</ele>
        <time>2018-12-01T10:55:01.573Z</time>
      </trkpt>
      <trkpt lat="43.47895" lon="1.52659">
        <ele>227.175</ele>
        <time>2018-12-01T10:55:10.707Z</time>
      </trkpt>
      <trkpt lat="43.47901" lon="1.52649">
        <ele>227.013</ele>
        <time>2018-12-01T10:55:20.972Z</time>
      </trkpt>
      <trkpt lat="43.47908" lon="1.52641">
        <ele>227.295</ele>
        <time>2018-12-01T10:55:28.895Z</time>
      </trkpt>
      <trkpt lat="43.47914" lon="1.52631">
        <ele>227.957</ele>
        <time>2018-12-01T10:55:34.336Z</time>
      </trkpt>
      <trkpt lat="43.47922" lon="1.52624">
        <ele>228.701</ele>
        <time>2018-12-01T10:55:39.283Z</time>
      </trkpt>
      <trkpt lat="43.47929" lon="1.52616">
        <ele>229.233</ele>
        <time>2018-12-01T10:55:44.993Z</time>
      </trkpt>
      <trkpt lat="43.47939" lon="1.52618">
        <ele>229.459</ele>
        <time>2018-12-01T10:55:52.483Z</time>
      </trkpt>
      <trkpt lat="43.47947" lon="1.52612">
        <ele>229.446</ele>
        <time>2018-12-01T10:56:02.318Z</time>
      </trkpt>
      <trkpt lat="43.47957" lon="1.52614">
        <ele>229.298</ele>
        <time>2018-12-01T10:56:12.299Z</time>
      </trkpt>
      <trkpt lat="43.47966" lon="1.52618">
        <ele>229.064</ele>
        <time>2018-12-01T10:56:20.949Z</time>
      </trkpt>
      <trkpt lat="43.47976" lon="1.5262">
        <ele>228.798</ele>
        <time>2018-12-01T10:56:29.763Z</time>
      </trkpt>
      <trkpt lat="43.47986" lon="1.52621">
        <ele>228.56</ele>
        <time>2018-12-01T10:56:37.860Z</time>
      </trkpt>
      <trkpt lat="43.47995" lon="1.52625">
        <ele>228.321</ele>
        <time>2018-12-01T10:56:45.040Z</time>
      </trkpt>
      <trkpt lat="43.47995" lon="1.52625">
        <ele>228.073</ele>
        <time>2018-12-01T10:56:52.017Z</time>
      </trkpt>
      <trkpt lat="43.47995" lon="1.52625">
        <ele>227.885</ele>
        <time>2018-12-01T10:56:52.117Z</time>
      </trkpt>
      <trkpt lat="43.48008" lon="1.52628">
        <ele>227.8</ele>
        <time>2018-12-01T10:57:07.678Z</time>
      </trkpt>
      <trkpt lat="43.48019" lon="1.52628">
        <ele>227.679</ele>
        <time>2018-12-01T10:57:16.304Z</time>
      </trkpt>
      <trkpt lat="43.48029" lon="1.52626">
        <ele>227.376</ele>
        <time>2018-12-01T10:57:23.961Z</time>
      </trkpt>
      <trkpt lat="43.48038" lon="1.52627">
        <ele>226.937</ele>
        <time>2018-12-01T10:57:31.375Z</time>
      </trkpt>
      <trkpt lat="43.48047" lon="1.52627">
        <ele>226.438</ele>
        <time>2018-12-01T10:57:39.109Z</time>
      </trkpt>
      <trkpt lat="43.48056" lon="1.52622">
        <ele>225.919</ele>
        <time>2018-12-01T10:57:47.072Z</time>
      </trkpt>
      <trkpt lat="43.48065" lon="1.52619">
        <ele>225.439</ele>
        <time>2018-12-01T10:57:54.463Z</time>
      </trkpt>
      <trkpt lat="43.48074" lon="1.52614">
        <ele>225.027</ele>
        <time>2018-12-01T10:58:01.927Z</time>
      </trkpt>
      <trkpt lat="43.48083" lon="1.5261">
        <ele>224.682</ele>
        <time>2018-12-01T10:58:09.346Z</time>
      </trkpt>
      <trkpt lat="43.48092" lon="1.52605">
        <ele>224.316</ele>
        <time>2018-12-01T10:58:17.106Z</time>
      </trkpt>
      <trkpt lat="43.48102" lon="1.52601">
        <ele>223.742</ele>
        <time>2018-12-01T10:58:24.495Z</time>
      </trkpt>
      <trkpt lat="43.4811" lon="1.52597">
        <ele>222.935</ele>
        <time>2018-12-01T10:58:30.967Z</time>
      </trkpt>
      <trkpt lat="43.4812" lon="1.52596">
        <ele>222.088</ele>
        <time>2018-12-01T10:58:38.204Z</time>
      </trkpt>
      <trkpt lat="43.4813" lon="1.52592">
        <ele>221.309</ele>
        <time>2018-12-01T10:58:46.482Z</time>
      </trkpt>
      <trkpt lat="43.48139" lon="1.52589">
        <ele>220.511</ele>
        <time>2018-12-01T10:58:54.225Z</time>
      </trkpt>
      <trkpt lat="43.48148" lon="1.52583">
        <ele>219.716</ele>
        <time>2018-12-01T10:59:01.911Z</time>
      </trkpt>
      <trkpt lat="43.48157" lon="1.52578">
        <ele>219.047</ele>
        <time>2018-12-01T10:59:09.289Z</time>
      </trkpt>
      <trkpt lat="43.48167" lon="1.52575">
        <ele>218.525</ele>
        <time>2018-12-01T10:59:16.535Z</time>
      </trkpt>
      <trkpt lat="43.48176" lon="1.52577">
        <ele>218.105</ele>
        <time>2018-12-01T10:59:23.866Z</time>
      </trkpt>
      <trkpt lat="43.48186" lon="1.52577">
        <ele>217.75</ele>
        <time>2018-12-01T10:59:31.714Z</time>
      </trkpt>
      <trkpt lat="43.48194" lon="1.5258">
        <ele>217.473</ele>
        <time>2018-12-01T10:59:39.125Z</time>
      </trkpt>
      <trkpt lat="43.48204" lon="1.52583">
        <ele>217.262</ele>
        <time>2018-12-01T10:59:46.596Z</time>
      </trkpt>
      <trkpt lat="43.48213" lon="1.52586">
        <ele>217.07</ele>
        <time>2018-12-01T10:59:54.267Z</time>
      </trkpt>
      <trkpt lat="43.48223" lon="1.52588">
        <ele>216.875</ele>
        <time>2018-12-01T11:00:02.499Z</time>
      </trkpt>
      <trkpt lat="43.48227" lon="1.52578">
        <ele>216.699</ele>
        <time>2018-12-01T11:00:11.097Z</time>
      </trkpt>
      <trkpt lat="43.48228" lon="1.52564">
        <ele>216.597</ele>
        <time>2018-12-01T11:00:20.267Z</time>
      </trkpt>
      <trkpt lat="43.48228" lon="1.5255">
        <ele>216.728</ele>
        <time>2018-12-01T11:00:29.059Z</time>
      </trkpt>
      <trkpt lat="43.48229" lon="1.52537">
        <ele>217.242</ele>
        <time>2018-12-01T11:00:37.345Z</time>
      </trkpt>
      <trkpt lat="43.48229" lon="1.52524">
        <ele>218.068</ele>
        <time>2018-12-01T11:00:45.865Z</time>
      </trkpt>
      <trkpt lat="43.48232" lon="1.52512">
        <ele>218.942</ele>
        <time>2018-12-01T11:00:54.145Z</time>
      </trkpt>
      <trkpt lat="43.48234" lon="1.52498">
        <ele>219.708</ele>
        <time>2018-12-01T11:01:03.019Z</time>
      </trkpt>
      <trkpt lat="43.48239" lon="1.52487">
        <ele>220.347</ele>
        <time>2018-12-01T11:01:10.526Z</time>
      </trkpt>
      <trkpt lat="43.48244" lon="1.52476">
        <ele>220.834</ele>
        <time>2018-12-01T11:01:18.075Z</time>
      </trkpt>
      <trkpt lat="43.48248" lon="1.52465">
        <ele>221.13</ele>
        <time>2018-12-01T11:01:26.043Z</time>
      </trkpt>
      <trkpt lat="43.48248" lon="1.52465">
        <ele>221.253</ele>
        <time>2018-12-01T11:01:36.046Z</time>
      </trkpt>
      <trkpt lat="43.48248" lon="1.52465">
        <ele>221.23</ele>
        <time>2018-12-01T11:01:36.146Z</time>
      </trkpt>
      <trkpt lat="43.48255" lon="1.52449">
        <ele>221.126</ele>
        <time>2018-12-01T11:01:51.570Z</time>
      </trkpt>
      <trkpt lat="43.4826" lon="1.5244">
        <ele>221.054</ele>
        <time>2018-12-01T11:01:59.172Z</time>
      </trkpt>
      <trkpt lat="43.48266" lon="1.52428">
        <ele>221.111</ele>
        <time>2018-12-01T11:02:07.099Z</time>
      </trkpt>
      <trkpt lat="43.48274" lon="1.52418">
        <ele>221.27</ele>
        <time>2018-12-01T11:02:15.210Z</time>
      </trkpt>
      <trkpt lat="43.48281" lon="1.5241">
        <ele>221.427</ele>
        <time>2018-12-01T11:02:22.914Z</time>
      </trkpt>
      <trkpt lat="43.48287" lon="1.524">
        <ele>221.518</ele>
        <time>2018-12-01T11:02:30.438Z</time>
      </trkpt>
      <trkpt lat="43.48293" lon="1.5239">
        <ele>221.513</ele>
        <time>2018-12-01T11:02:37.716Z</time>
      </trkpt>
      <trkpt lat="43.483" lon="1.52381">
        <ele>221.414</ele>
        <time>2018-12-01T11:02:45.127Z</time>
      </trkpt>
      <trkpt lat="43.48306" lon="1.52371">
        <ele>221.266</ele>
        <time>2018-12-01T11:02:52.593Z</time>
      </trkpt>
      <trkpt lat="43.48314" lon="1.52363">
        <ele>221.11</ele>
        <time>2018-12-01T11:03:00.541Z</time>
      </trkpt>
      <trkpt lat="43.48321" lon="1.52355">
        <ele>220.979</ele>
        <time>2018-12-01T11:03:08.840Z</time>
      </trkpt>
      <trkpt lat="43.48328" lon="1.52347">
        <ele>220.897</ele>
        <time>2018-12-01T11:03:16.629Z</time>
      </trkpt>
      <trkpt lat="43.48336" lon="1.52339">
        <ele>220.845</ele>
        <time>2018-12-01T11:03:23.884Z</time>
      </trkpt>
      <trkpt lat="43.48343" lon="1.5233">
        <ele>220.776</ele>
        <time>2018-12-01T11:03:30.990Z</time>
      </trkpt>
      <trkpt lat="43.4835" lon="1.52322">
        <ele>220.626</ele>
        <time>2018-12-01T11:03:38.391Z</time>
      </trkpt>
      <trkpt lat="43.48358" lon="1.52314">
        <ele>220.326</ele>
        <time>2018-12-01T11:03:46.104Z</time>
      </trkpt>
      <trkpt lat="43.48364" lon="1.52305">
        <ele>219.903</ele>
        <time>2018-12-01T11:03:53.151Z</time>
      </trkpt>
      <trkpt lat="43.4837" lon="1.52295">
        <ele>219.476</ele>
        <time>2018-12-01T11:04:00.621Z</time>
      </trkpt>
      <trkpt lat="43.48373" lon="1.52283">
        <ele>219.043</ele>
        <time>2018-12-01T11:04:09.061Z</time>
      </trkpt>
      <trkpt lat="43.48373" lon="1.52283">
        <ele>218.583</ele>
        <time>2018-12-01T11:04:13.052Z</time>
      </trkpt>
      <trkpt lat="43.48373" lon="1.52283">
        <ele>218.264</ele>
        <time>2018-12-01T11:04:27.094Z</time>
      </trkpt>
      <trkpt lat="43.48378" lon="1.52273">
        <ele>218.19</ele>
        <time>2018-12-01T11:04:40.737Z</time>
      </trkpt>
      <trkpt lat="43.48383" lon="1.52262">
        <ele>217.933</ele>
        <time>2018-12-01T11:04:49.563Z</time>
      </trkpt>
      <trkpt lat="43.48388" lon="1.5225">
        <ele>217.075</ele>
        <time>2018-12-01T11:04:57.989Z</time>
      </trkpt>
      <trkpt lat="43.48391" lon="1.52239">
        <ele>215.856</ele>
        <time>2018-12-01T11:05:06.047Z</time>
      </trkpt>
      <trkpt lat="43.48399" lon="1.5223">
        <ele>214.738</ele>
        <time>2018-12-01T11:05:14.417Z</time>
      </trkpt>
      <trkpt lat="43.48406" lon="1.52219">
        <ele>213.784</ele>
        <time>2018-12-01T11:05:22.336Z</time>
      </trkpt>
      <trkpt lat="43.48412" lon="1.52209">
        <ele>212.879</ele>
        <time>2018-12-01T11:05:30.295Z</time>
      </trkpt>
      <trkpt lat="43.48418" lon="1.52198">
        <ele>211.964</ele>
        <time>2018-12-01T11:05:38.589Z</time>
      </trkpt>
      <trkpt lat="43.48424" lon="1.52189">
        <ele>211.073</ele>
        <time>2018-12-01T11:05:46.044Z</time>
      </trkpt>
      <trkpt lat="43.48433" lon="1.52181">
        <ele>210.226</ele>
        <time>2018-12-01T11:05:54.160Z</time>
      </trkpt>
      <trkpt lat="43.4844" lon="1.52172">
        <ele>209.48</ele>
        <time>2018-12-01T11:06:01.967Z</time>
      </trkpt>
      <trkpt lat="43.48446" lon="1.52162">
        <ele>208.869</ele>
        <time>2018-12-01T11:06:09.295Z</time>
      </trkpt>
      <trkpt lat="43.48452" lon="1.52152">
        <ele>208.288</ele>
        <time>2018-12-01T11:06:16.206Z</time>
      </trkpt>
      <trkpt lat="43.48459" lon="1.52143">
        <ele>207.573</ele>
        <time>2018-12-01T11:06:23.738Z</time>
      </trkpt>
      <trkpt lat="43.48465" lon="1.52134">
        <ele>206.74</ele>
        <time>2018-12-01T11:06:32.109Z</time>
      </trkpt>
      <trkpt lat="43.48473" lon="1.52125">
        <ele>205.963</ele>
        <time>2018-12-01T11:06:40.840Z</time>
      </trkpt>
      <trkpt lat="43.4848" lon="1.52118">
        <ele>205.308</ele>
        <time>2018-12-01T11:06:48.550Z</time>
      </trkpt>
      <trkpt lat="43.48488" lon="1.5211">
        <ele>204.695</ele>
        <time>2018-12-01T11:06:56.140Z</time>
      </trkpt>
      <trkpt lat="43.48496" lon="1.52102">
        <ele>204.088</ele>
        <time>2018-12-01T11:07:04.469Z</time>
      </trkpt>
      <trkpt lat="43.48504" lon="1.52096">
        <ele>203.509</ele>
        <time>2018-12-01T11:07:12.233Z</time>
      </trkpt>
      <trkpt lat="43.48512" lon="1.52089">
        <ele>202.936</ele>
        <time>2018-12-01T11:07:19.967Z</time>
      </trkpt>
      <trkpt lat="43.48521" lon="1.52084">
        <ele>202.268</ele>
        <time>2018-12-01T11:07:26.802Z</time>
      </trkpt>
      <trkpt lat="43.48529" lon="1.52078">
        <ele>201.423</ele>
        <time>2018-12-01T11:07:33.591Z</time>
      </trkpt>
      <trkpt lat="43.48537" lon="1.52072">
        <ele>200.414</ele>
        <time>2018-12-01T11:07:41.856Z</time>
      </trkpt>
      <trkpt lat="43.48545" lon="1.52065">
        <ele>199.252</ele>
        <time>2018-12-01T11:07:50.567Z</time>
      </trkpt>
      <trkpt lat="43.48554" lon="1.52057">
        <ele>197.904</ele>
        <time>2018-12-01T11:07:59.215Z</time>
      </trkpt>
      <trkpt lat="43.48562" lon="1.52051">
        <ele>196.458</ele>
        <time>2018-12-01T11:08:06.817Z</time>
      </trkpt>
      <trkpt lat="43.4857" lon="1.52044">
        <ele>195.092</ele>
        <time>2018-12-01T11:08:15.269Z</time>
      </trkpt>
      <trkpt lat="43.48579" lon="1.52038">
        <ele>193.828</ele>
        <time>2018-12-01T11:08:24.446Z</time>
      </trkpt>
      <trkpt lat="43.48587" lon="1.52032">
        <ele>192.622</ele>
        <time>2018-12-01T11:08:33.742Z</time>
      </trkpt>
      <trkpt lat="43.48596" lon="1.52025">
        <ele>191.533</ele>
        <time>2018-12-01T11:08:42.596Z</time>
      </trkpt>
      <trkpt lat="43.48604" lon="1.52017">
        <ele>190.584</ele>
        <time>2018-12-01T11:08:50.013Z</time>
      </trkpt>
      <trkpt lat="43.48611" lon="1.5201">
        <ele>189.775</ele>
        <time>2018-12-01T11:08:56.496Z</time>
      </trkpt>
      <trkpt lat="43.48619" lon="1.52002">
        <ele>189.127</ele>
        <time>2018-12-01T11:09:03.715Z</time>
      </trkpt>
      <trkpt lat="43.48627" lon="1.51995">
        <ele>188.579</ele>
        <time>2018-12-01T11:09:11.795Z</time>
      </trkpt>
      <trkpt lat="43.48634" lon="1.51985">
        <ele>187.976</ele>
        <time>2018-12-01T11:09:20.244Z</time>
      </trkpt>
      <trkpt lat="43.4864" lon="1.51975">
        <ele>187.292</ele>
        <time>2018-12-01T11:09:28.153Z</time>
      </trkpt>
      <trkpt lat="43.48645" lon="1.51964">
        <ele>186.667</ele>
        <time>2018-12-01T11:09:36.841Z</time>
      </trkpt>
      <trkpt lat="43.48651" lon="1.51953">
        <ele>186.174</ele>
        <time>2018-12-01T11:09:46.350Z</time>
      </trkpt>
      <trkpt lat="43.48657" lon="1.51942">
        <ele>185.764</ele>
        <time>2018-12-01T11:09:55.810Z</time>
      </trkpt>
      <trkpt lat="43.48664" lon="1.51932">
        <ele>185.409</ele>
        <time>2018-12-01T11:10:04.680Z</time>
      </trkpt>
      <trkpt lat="43.48669" lon="1.51921">
        <ele>185.066</ele>
        <time>2018-12-01T11:10:12.535Z</time>
      </trkpt>
      <trkpt lat="43.4867" lon="1.51908">
        <ele>184.661</ele>
        <time>2018-12-01T11:10:20.390Z</time>
      </trkpt>
      <trkpt lat="43.48678" lon="1.51899">
        <ele>184.209</ele>
        <time>2018-12-01T11:10:28.959Z</time>
      </trkpt>
      <trkpt lat="43.48685" lon="1.51891">
        <ele>183.766</ele>
        <time>2018-12-01T11:10:38.624Z</time>
      </trkpt>
      <trkpt lat="43.48693" lon="1.51883">
        <ele>183.257</ele>
        <time>2018-12-01T11:10:47.578Z</time>
      </trkpt>
      <trkpt lat="43.48701" lon="1.51876">
        <ele>182.573</ele>
        <time>2018-12-01T11:10:56.202Z</time>
      </trkpt>
      <trkpt lat="43.48711" lon="1.51873">
        <ele>181.691</ele>
        <time>2018-12-01T11:11:06.034Z</time>
      </trkpt>
      <trkpt lat="43.4872" lon="1.51868">
        <ele>180.681</ele>
        <time>2018-12-01T11:11:14.796Z</time>
      </trkpt>
      <trkpt lat="43.48728" lon="1.51862">
        <ele>179.644</ele>
        <time>2018-12-01T11:11:23.614Z</time>
      </trkpt>
      <trkpt lat="43.48736" lon="1.51855">
        <ele>178.656</ele>
        <time>2018-12-01T11:11:32.712Z</time>
      </trkpt>
      <trkpt lat="43.48744" lon="1.51849">
        <ele>177.789</ele>
        <time>2018-12-01T11:11:40.511Z</time>
      </trkpt>
      <trkpt lat="43.48753" lon="1.51843">
        <ele>177.073</ele>
        <time>2018-12-01T11:11:48.470Z</time>
      </trkpt>
      <trkpt lat="43.48761" lon="1.51838">
        <ele>176.439</ele>
        <time>2018-12-01T11:11:56.698Z</time>
      </trkpt>
      <trkpt lat="43.48769" lon="1.51831">
        <ele>175.844</ele>
        <time>2018-12-01T11:12:04.867Z</time>
      </trkpt>
      <trkpt lat="43.48778" lon="1.51824">
        <ele>175.287</ele>
        <time>2018-12-01T11:12:12.747Z</time>
      </trkpt>
      <trkpt lat="43.48786" lon="1.51819">
        <ele>174.827</ele>
        <time>2018-12-01T11:12:20.525Z</time>
      </trkpt>
      <trkpt lat="43.48795" lon="1.51813">
        <ele>174.489</ele>
        <time>2018-12-01T11:12:28.716Z</time>
      </trkpt>
      <trkpt lat="43.48803" lon="1.51805">
        <ele>174.169</ele>
        <time>2018-12-01T11:12:36.182Z</time>
      </trkpt>
      <trkpt lat="43.48811" lon="1.51797">
        <ele>173.777</ele>
        <time>2018-12-01T11:12:43.624Z</time>
      </trkpt>
      <trkpt lat="43.48819" lon="1.5179">
        <ele>173.393</ele>
        <time>2018-12-01T11:12:52.303Z</time>
      </trkpt>
      <trkpt lat="43.48826" lon="1.51781">
        <ele>173.16</ele>
        <time>2018-12-01T11:13:01.687Z</time>
      </trkpt>
      <trkpt lat="43.48833" lon="1.51772">
        <ele>173.202</ele>
        <time>2018-12-01T11:13:10.484Z</time>
      </trkpt>
      <trkpt lat="43.4884" lon="1.51764">
        <ele>173.598</ele>
        <time>2018-12-01T11:13:19.416Z</time>
      </trkpt>
      <trkpt lat="43.48848" lon="1.51756">
        <ele>174.395</ele>
        <time>2018-12-01T11:13:30.060Z</time>
      </trkpt>
      <trkpt lat="43.48854" lon="1.51746">
        <ele>175.677</ele>
        <time>2018-12-01T11:13:41.586Z</time>
      </trkpt>
      <trkpt lat="43.48862" lon="1.5174">
        <ele>177.403</ele>
        <time>2018-12-01T11:13:53.255Z</time>
      </trkpt>
      <trkpt lat="43.48871" lon="1.51735">
        <ele>179.272</ele>
        <time>2018-12-01T11:14:05.103Z</time>
      </trkpt>
      <trkpt lat="43.48879" lon="1.51728">
        <ele>181.004</ele>
        <time>2018-12-01T11:14:16.053Z</time>
      </trkpt>
      <trkpt lat="43.48879" lon="1.51728">
        <ele>182.346</ele>
        <time>2018-12-01T11:14:24.049Z</time>
      </trkpt>
      <trkpt lat="43.48879" lon="1.51728">
        <ele>182.94</ele>
        <time>2018-12-01T11:14:37.734Z</time>
      </trkpt>
      <trkpt lat="43.48887" lon="1.51715">
        <ele>182.794</ele>
        <time>2018-12-01T11:14:58.993Z</time>
      </trkpt>
      <trkpt lat="43.48896" lon="1.51709">
        <ele>182.656</ele>
        <time>2018-12-01T11:15:10.898Z</time>
      </trkpt>
      <trkpt lat="43.48903" lon="1.51701">
        <ele>183.188</ele>
        <time>2018-12-01T11:15:23.018Z</time>
      </trkpt>
      <trkpt lat="43.48911" lon="1.51694">
        <ele>184.436</ele>
        <time>2018-12-01T11:15:33.650Z</time>
      </trkpt>
      <trkpt lat="43.48919" lon="1.51689">
        <ele>186.14</ele>
        <time>2018-12-01T11:15:44.381Z</time>
      </trkpt>
      <trkpt lat="43.48929" lon="1.51685">
        <ele>187.927</ele>
        <time>2018-12-01T11:15:56.452Z</time>
      </trkpt>
      <trkpt lat="43.48938" lon="1.51681">
        <ele>189.634</ele>
        <time>2018-12-01T11:16:08.011Z</time>
      </trkpt>
      <trkpt lat="43.48947" lon="1.51676">
        <ele>191.383</ele>
        <time>2018-12-01T11:16:18.277Z</time>
      </trkpt>
      <trkpt lat="43.48954" lon="1.51668">
        <ele>193.177</ele>
        <time>2018-12-01T11:16:27.857Z</time>
      </trkpt>
      <trkpt lat="43.48963" lon="1.51661">
        <ele>194.903</ele>
        <time>2018-12-01T11:16:37.187Z</time>
      </trkpt>
      <trkpt lat="43.48971" lon="1.51654">
        <ele>196.381</ele>
        <time>2018-12-01T11:16:46.118Z</time>
      </trkpt>
      <trkpt lat="43.48978" lon="1.51646">
        <ele>197.494</ele>
        <time>2018-12-01T11:16:55.985Z</time>
      </trkpt>
      <trkpt lat="43.48985" lon="1.51638">
        <ele>198.352</ele>
        <time>2018-12-01T11:17:04.405Z</time>
      </trkpt>
      <trkpt lat="43.48991" lon="1.51628">
        <ele>199.048</ele>
        <time>2018-12-01T11:17:12.905Z</time>
      </trkpt>
      <trkpt lat="43.48997" lon="1.51617">
        <ele>199.55</ele>
        <time>2018-12-01T11:17:21.354Z</time>
      </trkpt>
      <trkpt lat="43.49005" lon="1.5161">
        <ele>199.833</ele>
        <time>2018-12-01T11:17:30.122Z</time>
      </trkpt>
      <trkpt lat="43.49012" lon="1.51601">
        <ele>199.926</ele>
        <time>2018-12-01T11:17:39.374Z</time>
      </trkpt>
      <trkpt lat="43.49011" lon="1.51587">
        <ele>199.903</ele>
        <time>2018-12-01T11:17:47.780Z</time>
      </trkpt>
      <trkpt lat="43.49006" lon="1.51576">
        <ele>199.887</ele>
        <time>2018-12-01T11:17:55.896Z</time>
      </trkpt>
      <trkpt lat="43.49002" lon="1.51564">
        <ele>200.03</ele>
        <time>2018-12-01T11:18:03.676Z</time>
      </trkpt>
      <trkpt lat="43.48997" lon="1.51553">
        <ele>200.413</ele>
        <time>2018-12-01T11:18:12.733Z</time>
      </trkpt>
      <trkpt lat="43.48991" lon="1.51543">
        <ele>200.989</ele>
        <time>2018-12-01T11:18:20.983Z</time>
      </trkpt>
      <trkpt lat="43.48983" lon="1.51534">
        <ele>201.688</ele>
        <time>2018-12-01T11:18:29.346Z</time>
      </trkpt>
      <trkpt lat="43.48978" lon="1.51522">
        <ele>202.447</ele>
        <time>2018-12-01T11:18:39.239Z</time>
      </trkpt>
      <trkpt lat="43.48976" lon="1.51509">
        <ele>203.133</ele>
        <time>2018-12-01T11:18:49.615Z</time>
      </trkpt>
      <trkpt lat="43.48969" lon="1.51499">
        <ele>203.663</ele>
        <time>2018-12-01T11:18:59.891Z</time>
      </trkpt>
      <trkpt lat="43.48962" lon="1.5149">
        <ele>204.129</ele>
        <time>2018-12-01T11:19:08.383Z</time>
      </trkpt>
      <trkpt lat="43.48955" lon="1.5148">
        <ele>204.612</ele>
        <time>2018-12-01T11:19:17.179Z</time>
      </trkpt>
      <trkpt lat="43.48947" lon="1.51469">
        <ele>205.13</ele>
        <time>2018-12-01T11:19:24.642Z</time>
      </trkpt>
      <trkpt lat="43.48939" lon="1.51463">
        <ele>205.692</ele>
        <time>2018-12-01T11:19:30.397Z</time>
      </trkpt>
      <trkpt lat="43.48934" lon="1.51452">
        <ele>206.193</ele>
        <time>2018-12-01T11:19:36.627Z</time>
      </trkpt>
      <trkpt lat="43.48925" lon="1.51447">
        <ele>206.536</ele>
        <time>2018-12-01T11:19:43.895Z</time>
      </trkpt>
      <trkpt lat="43.48915" lon="1.51449">
        <ele>206.767</ele>
        <time>2018-12-01T11:19:51.749Z</time>
      </trkpt>
      <trkpt lat="43.48907" lon="1.51441">
        <ele>206.91</ele>
        <time>2018-12-01T11:19:59.058Z</time>
      </trkpt>
      <trkpt lat="43.48907" lon="1.51441">
        <ele>206.943</ele>
        <time>2018-12-01T11:20:01.046Z</time>
      </trkpt>
    </trkseg>
  </trk>
</gpx>